<?xml version="1.0" encoding="UTF-8" standalone="no" ?>
<gpx xmlns="http://www.topografix.com/GPX/1/1" xmlns:xsi="http://www.w3.org/2001/XMLSchema-instance" xsi:schemaLocation="http://www.topografix.com/GPX/1/1 http://www.topografix.com/GPX/1/1/gpx.xsd" version="1.1" creator="VisuGPX - https://www.visugpx.com">
  <metadata>
    <name>9/18 Valencogne / Le Grand Lemps</name>
    <desc><![CDATA[File with points/tracks from Locus Map Classic/3.60.0]]></desc>
  </metadata>
  <trk>
    <name><![CDATA[Valencogne / Le Grand Lemps]]></name>
    <extensions>
      <line xmlns="http://www.topografix.com/GPX/gpx_style/0/2">
        <color>0000FF</color>
        <opacity>0.59</opacity>
        <width>4.0</width>
      </line>
    </extensions>
    <trkseg>
      <trkpt lat="45.49953" lon="5.54098">
        <ele>581.38</ele>
        <time>2022-04-30T06:26:18.000Z</time>
      </trkpt>
      <trkpt lat="45.49943" lon="5.54068">
        <ele>584.2</ele>
        <time>2022-04-30T06:27:25.000Z</time>
      </trkpt>
      <trkpt lat="45.49926" lon="5.54045">
        <ele>578.85</ele>
        <time>2022-04-30T06:28:28.000Z</time>
      </trkpt>
      <trkpt lat="45.49909" lon="5.54022">
        <ele>576.88</ele>
        <time>2022-04-30T06:28:48.901Z</time>
      </trkpt>
      <trkpt lat="45.49897" lon="5.53994">
        <ele>574.21</ele>
        <time>2022-04-30T06:29:08.659Z</time>
      </trkpt>
      <trkpt lat="45.49879" lon="5.53972">
        <ele>572.21</ele>
        <time>2022-04-30T06:30:08.464Z</time>
      </trkpt>
      <trkpt lat="45.49863" lon="5.53948">
        <ele>571.3</ele>
        <time>2022-04-30T06:30:27.000Z</time>
      </trkpt>
      <trkpt lat="45.49876" lon="5.53976">
        <ele>576.88</ele>
        <time>2022-04-30T06:31:24.597Z</time>
      </trkpt>
      <trkpt lat="45.49866" lon="5.54005">
        <ele>574.67</ele>
        <time>2022-04-30T06:31:52.924Z</time>
      </trkpt>
      <trkpt lat="45.49854" lon="5.54032">
        <ele>561.12</ele>
        <time>2022-04-30T06:32:17.743Z</time>
      </trkpt>
      <trkpt lat="45.49841" lon="5.54059">
        <ele>559.98</ele>
        <time>2022-04-30T06:32:38.800Z</time>
      </trkpt>
      <trkpt lat="45.49839" lon="5.54091">
        <ele>557.62</ele>
        <time>2022-04-30T06:33:03.620Z</time>
      </trkpt>
      <trkpt lat="45.49833" lon="5.54122">
        <ele>564.22</ele>
        <time>2022-04-30T06:33:27.000Z</time>
      </trkpt>
      <trkpt lat="45.49822" lon="5.5415">
        <ele>567.12</ele>
        <time>2022-04-30T06:33:51.907Z</time>
      </trkpt>
      <trkpt lat="45.4981" lon="5.54177">
        <ele>570.43</ele>
        <time>2022-04-30T06:34:20.481Z</time>
      </trkpt>
      <trkpt lat="45.49798" lon="5.54205">
        <ele>576.52</ele>
        <time>2022-04-30T06:34:47.000Z</time>
      </trkpt>
      <trkpt lat="45.49785" lon="5.54232">
        <ele>580.03</ele>
        <time>2022-04-30T06:35:17.605Z</time>
      </trkpt>
      <trkpt lat="45.49768" lon="5.54254">
        <ele>581.9</ele>
        <time>2022-04-30T06:35:50.762Z</time>
      </trkpt>
      <trkpt lat="45.49751" lon="5.54276">
        <ele>587.8</ele>
        <time>2022-04-30T06:36:20.846Z</time>
      </trkpt>
      <trkpt lat="45.49731" lon="5.54292">
        <ele>595.52</ele>
        <time>2022-04-30T06:36:48.000Z</time>
      </trkpt>
      <trkpt lat="45.4974" lon="5.54321">
        <ele>592.9</ele>
        <time>2022-04-30T06:37:37.000Z</time>
      </trkpt>
      <trkpt lat="45.49743" lon="5.54353">
        <ele>594.72</ele>
        <time>2022-04-30T06:38:10.923Z</time>
      </trkpt>
      <trkpt lat="45.49744" lon="5.54386">
        <ele>600.39</ele>
        <time>2022-04-30T06:38:40.546Z</time>
      </trkpt>
      <trkpt lat="45.49739" lon="5.54417">
        <ele>595.24</ele>
        <time>2022-04-30T06:39:14.482Z</time>
      </trkpt>
      <trkpt lat="45.49737" lon="5.5445">
        <ele>596.04</ele>
        <time>2022-04-30T06:39:45.439Z</time>
      </trkpt>
      <trkpt lat="45.49735" lon="5.54482">
        <ele>593.28</ele>
        <time>2022-04-30T06:40:15.708Z</time>
      </trkpt>
      <trkpt lat="45.49739" lon="5.54514">
        <ele>598.43</ele>
        <time>2022-04-30T06:40:42.639Z</time>
      </trkpt>
      <trkpt lat="45.49746" lon="5.54545">
        <ele>578.87</ele>
        <time>2022-04-30T06:41:05.000Z</time>
      </trkpt>
      <trkpt lat="45.49751" lon="5.54577">
        <ele>609.05</ele>
        <time>2022-04-30T06:41:30.742Z</time>
      </trkpt>
      <trkpt lat="45.49757" lon="5.54608">
        <ele>615.24</ele>
        <time>2022-04-30T06:41:58.000Z</time>
      </trkpt>
      <trkpt lat="45.49756" lon="5.54641">
        <ele>610.44</ele>
        <time>2022-04-30T06:42:45.000Z</time>
      </trkpt>
      <trkpt lat="45.4974" lon="5.54664">
        <ele>619.21</ele>
        <time>2022-04-30T06:43:21.585Z</time>
      </trkpt>
      <trkpt lat="45.49726" lon="5.54689">
        <ele>621.73</ele>
        <time>2022-04-30T06:43:50.381Z</time>
      </trkpt>
      <trkpt lat="45.49718" lon="5.5472">
        <ele>620.16</ele>
        <time>2022-04-30T06:44:14.746Z</time>
      </trkpt>
      <trkpt lat="45.49707" lon="5.54748">
        <ele>620.18</ele>
        <time>2022-04-30T06:45:16.000Z</time>
      </trkpt>
      <trkpt lat="45.49699" lon="5.5478">
        <ele>618.45</ele>
        <time>2022-04-30T06:45:37.799Z</time>
      </trkpt>
      <trkpt lat="45.49691" lon="5.54809">
        <ele>618.62</ele>
        <time>2022-04-30T06:45:57.884Z</time>
      </trkpt>
      <trkpt lat="45.49682" lon="5.54839">
        <ele>618.49</ele>
        <time>2022-04-30T06:46:20.219Z</time>
      </trkpt>
      <trkpt lat="45.49663" lon="5.54858">
        <ele>619.67</ele>
        <time>2022-04-30T06:46:46.000Z</time>
      </trkpt>
      <trkpt lat="45.49642" lon="5.54843">
        <ele>623.05</ele>
        <time>2022-04-30T06:47:10.982Z</time>
      </trkpt>
      <trkpt lat="45.49622" lon="5.54828">
        <ele>626.04</ele>
        <time>2022-04-30T06:47:37.000Z</time>
      </trkpt>
      <trkpt lat="45.496" lon="5.54839">
        <ele>627.06</ele>
        <time>2022-04-30T06:48:04.781Z</time>
      </trkpt>
      <trkpt lat="45.49579" lon="5.54851">
        <ele>627.06</ele>
        <time>2022-04-30T06:48:27.661Z</time>
      </trkpt>
      <trkpt lat="45.49571" lon="5.54881">
        <ele>624.76</ele>
        <time>2022-04-30T06:49:13.960Z</time>
      </trkpt>
      <trkpt lat="45.49564" lon="5.54912">
        <ele>627.06</ele>
        <time>2022-04-30T06:49:35.000Z</time>
      </trkpt>
      <trkpt lat="45.49554" lon="5.54942">
        <ele>624.59</ele>
        <time>2022-04-30T06:49:58.884Z</time>
      </trkpt>
      <trkpt lat="45.4954" lon="5.54967">
        <ele>625.02</ele>
        <time>2022-04-30T06:50:22.000Z</time>
      </trkpt>
      <trkpt lat="45.49523" lon="5.54991">
        <ele>627.05</ele>
        <time>2022-04-30T06:50:42.000Z</time>
      </trkpt>
      <trkpt lat="45.49508" lon="5.55015">
        <ele>628.92</ele>
        <time>2022-04-30T06:51:04.000Z</time>
      </trkpt>
      <trkpt lat="45.49493" lon="5.55041">
        <ele>631.14</ele>
        <time>2022-04-30T06:51:25.957Z</time>
      </trkpt>
      <trkpt lat="45.49479" lon="5.55067">
        <ele>629.78</ele>
        <time>2022-04-30T06:51:45.599Z</time>
      </trkpt>
      <trkpt lat="45.49465" lon="5.55093">
        <ele>627.97</ele>
        <time>2022-04-30T06:52:06.339Z</time>
      </trkpt>
      <trkpt lat="45.4945" lon="5.55116">
        <ele>630.69</ele>
        <time>2022-04-30T06:52:55.000Z</time>
      </trkpt>
      <trkpt lat="45.49435" lon="5.5514">
        <ele>630.6</ele>
        <time>2022-04-30T06:53:17.630Z</time>
      </trkpt>
      <trkpt lat="45.49418" lon="5.55163">
        <ele>628.98</ele>
        <time>2022-04-30T06:53:39.765Z</time>
      </trkpt>
      <trkpt lat="45.494" lon="5.55185">
        <ele>628.92</ele>
        <time>2022-04-30T06:54:02.886Z</time>
      </trkpt>
      <trkpt lat="45.49382" lon="5.55206">
        <ele>628.51</ele>
        <time>2022-04-30T06:54:22.922Z</time>
      </trkpt>
      <trkpt lat="45.49364" lon="5.55227">
        <ele>629.61</ele>
        <time>2022-04-30T06:54:42.818Z</time>
      </trkpt>
      <trkpt lat="45.49345" lon="5.55246">
        <ele>629.55</ele>
        <time>2022-04-30T06:55:06.917Z</time>
      </trkpt>
      <trkpt lat="45.49339" lon="5.55214">
        <ele>628.21</ele>
        <time>2022-04-30T06:55:25.803Z</time>
      </trkpt>
      <trkpt lat="45.49323" lon="5.55191">
        <ele>626.52</ele>
        <time>2022-04-30T06:55:45.706Z</time>
      </trkpt>
      <trkpt lat="45.49306" lon="5.55171">
        <ele>627.11</ele>
        <time>2022-04-30T06:56:05.637Z</time>
      </trkpt>
      <trkpt lat="45.49287" lon="5.55152">
        <ele>625.96</ele>
        <time>2022-04-30T06:56:25.205Z</time>
      </trkpt>
      <trkpt lat="45.49276" lon="5.55124">
        <ele>629.8</ele>
        <time>2022-04-30T06:56:46.924Z</time>
      </trkpt>
      <trkpt lat="45.49278" lon="5.55092">
        <ele>631.4</ele>
        <time>2022-04-30T06:57:08.497Z</time>
      </trkpt>
      <trkpt lat="45.49281" lon="5.55059">
        <ele>630.45</ele>
        <time>2022-04-30T06:57:32.406Z</time>
      </trkpt>
      <trkpt lat="45.49282" lon="5.55027">
        <ele>628.89</ele>
        <time>2022-04-30T06:57:58.000Z</time>
      </trkpt>
      <trkpt lat="45.49278" lon="5.54993">
        <ele>630.81</ele>
        <time>2022-04-30T06:58:23.586Z</time>
      </trkpt>
      <trkpt lat="45.49274" lon="5.54961">
        <ele>631.22</ele>
        <time>2022-04-30T06:58:48.638Z</time>
      </trkpt>
      <trkpt lat="45.49269" lon="5.54929">
        <ele>628.08</ele>
        <time>2022-04-30T06:59:10.000Z</time>
      </trkpt>
      <trkpt lat="45.49261" lon="5.54899">
        <ele>632.27</ele>
        <time>2022-04-30T06:59:31.997Z</time>
      </trkpt>
      <trkpt lat="45.49255" lon="5.54867">
        <ele>641.01</ele>
        <time>2022-04-30T06:59:50.805Z</time>
      </trkpt>
      <trkpt lat="45.49251" lon="5.54835">
        <ele>645.81</ele>
        <time>2022-04-30T07:00:12.601Z</time>
      </trkpt>
      <trkpt lat="45.49241" lon="5.54806">
        <ele>652.65</ele>
        <time>2022-04-30T07:00:38.825Z</time>
      </trkpt>
      <trkpt lat="45.49229" lon="5.54777">
        <ele>651.01</ele>
        <time>2022-04-30T07:01:09.000Z</time>
      </trkpt>
      <trkpt lat="45.49217" lon="5.54748">
        <ele>652.21</ele>
        <time>2022-04-30T07:01:39.485Z</time>
      </trkpt>
      <trkpt lat="45.49209" lon="5.54718">
        <ele>648.24</ele>
        <time>2022-04-30T07:02:05.641Z</time>
      </trkpt>
      <trkpt lat="45.49206" lon="5.54686">
        <ele>647.76</ele>
        <time>2022-04-30T07:02:29.706Z</time>
      </trkpt>
      <trkpt lat="45.49202" lon="5.54654">
        <ele>649.52</ele>
        <time>2022-04-30T07:02:52.000Z</time>
      </trkpt>
      <trkpt lat="45.492" lon="5.54622">
        <ele>647.11</ele>
        <time>2022-04-30T07:03:16.042Z</time>
      </trkpt>
      <trkpt lat="45.49203" lon="5.54589">
        <ele>645.29</ele>
        <time>2022-04-30T07:03:40.000Z</time>
      </trkpt>
      <trkpt lat="45.49205" lon="5.54556">
        <ele>644.22</ele>
        <time>2022-04-30T07:04:05.165Z</time>
      </trkpt>
      <trkpt lat="45.49208" lon="5.54524">
        <ele>641.46</ele>
        <time>2022-04-30T07:04:30.000Z</time>
      </trkpt>
      <trkpt lat="45.4921" lon="5.54492">
        <ele>637.55</ele>
        <time>2022-04-30T07:04:58.000Z</time>
      </trkpt>
      <trkpt lat="45.49193" lon="5.54468">
        <ele>629.75</ele>
        <time>2022-04-30T07:05:23.999Z</time>
      </trkpt>
      <trkpt lat="45.49175" lon="5.54448">
        <ele>630.16</ele>
        <time>2022-04-30T07:05:54.643Z</time>
      </trkpt>
      <trkpt lat="45.49157" lon="5.54429">
        <ele>630.29</ele>
        <time>2022-04-30T07:06:15.323Z</time>
      </trkpt>
      <trkpt lat="45.49136" lon="5.54416">
        <ele>631.62</ele>
        <time>2022-04-30T07:06:38.904Z</time>
      </trkpt>
      <trkpt lat="45.49115" lon="5.54405">
        <ele>629.98</ele>
        <time>2022-04-30T07:07:01.718Z</time>
      </trkpt>
      <trkpt lat="45.49092" lon="5.54397">
        <ele>629.11</ele>
        <time>2022-04-30T07:07:25.021Z</time>
      </trkpt>
      <trkpt lat="45.49071" lon="5.54387">
        <ele>629.29</ele>
        <time>2022-04-30T07:07:46.797Z</time>
      </trkpt>
      <trkpt lat="45.49051" lon="5.54371">
        <ele>631.44</ele>
        <time>2022-04-30T07:08:08.717Z</time>
      </trkpt>
      <trkpt lat="45.49032" lon="5.54352">
        <ele>632.03</ele>
        <time>2022-04-30T07:08:30.580Z</time>
      </trkpt>
      <trkpt lat="45.49013" lon="5.54335">
        <ele>636.32</ele>
        <time>2022-04-30T07:11:12.042Z</time>
      </trkpt>
      <trkpt lat="45.48993" lon="5.54319">
        <ele>635.11</ele>
        <time>2022-04-30T07:11:33.722Z</time>
      </trkpt>
      <trkpt lat="45.48972" lon="5.54307">
        <ele>631.98</ele>
        <time>2022-04-30T07:11:54.479Z</time>
      </trkpt>
      <trkpt lat="45.4895" lon="5.54297">
        <ele>630.91</ele>
        <time>2022-04-30T07:12:16.024Z</time>
      </trkpt>
      <trkpt lat="45.48927" lon="5.5429">
        <ele>630.66</ele>
        <time>2022-04-30T07:12:36.677Z</time>
      </trkpt>
      <trkpt lat="45.48917" lon="5.54261">
        <ele>629</ele>
        <time>2022-04-30T07:13:05.984Z</time>
      </trkpt>
      <trkpt lat="45.48925" lon="5.5423">
        <ele>630.63</ele>
        <time>2022-04-30T07:13:29.998Z</time>
      </trkpt>
      <trkpt lat="45.4893" lon="5.54198">
        <ele>633.46</ele>
        <time>2022-04-30T07:13:52.000Z</time>
      </trkpt>
      <trkpt lat="45.48936" lon="5.54168">
        <ele>632.86</ele>
        <time>2022-04-30T07:14:15.000Z</time>
      </trkpt>
      <trkpt lat="45.48942" lon="5.54135">
        <ele>632.08</ele>
        <time>2022-04-30T07:14:35.979Z</time>
      </trkpt>
      <trkpt lat="45.48948" lon="5.54104">
        <ele>634.52</ele>
        <time>2022-04-30T07:14:54.922Z</time>
      </trkpt>
      <trkpt lat="45.48957" lon="5.54073">
        <ele>635.02</ele>
        <time>2022-04-30T07:15:16.000Z</time>
      </trkpt>
      <trkpt lat="45.48966" lon="5.54043">
        <ele>637.61</ele>
        <time>2022-04-30T07:15:36.063Z</time>
      </trkpt>
      <trkpt lat="45.48972" lon="5.54012">
        <ele>638.59</ele>
        <time>2022-04-30T07:15:56.821Z</time>
      </trkpt>
      <trkpt lat="45.48959" lon="5.53985">
        <ele>638.79</ele>
        <time>2022-04-30T07:16:18.798Z</time>
      </trkpt>
      <trkpt lat="45.48943" lon="5.53962">
        <ele>639.04</ele>
        <time>2022-04-30T07:16:41.918Z</time>
      </trkpt>
      <trkpt lat="45.48928" lon="5.53935">
        <ele>641.16</ele>
        <time>2022-04-30T07:17:06.000Z</time>
      </trkpt>
      <trkpt lat="45.48917" lon="5.53907">
        <ele>641.97</ele>
        <time>2022-04-30T07:17:27.566Z</time>
      </trkpt>
      <trkpt lat="45.48906" lon="5.53879">
        <ele>643.54</ele>
        <time>2022-04-30T07:17:48.765Z</time>
      </trkpt>
      <trkpt lat="45.48888" lon="5.53859">
        <ele>643.64</ele>
        <time>2022-04-30T07:18:09.000Z</time>
      </trkpt>
      <trkpt lat="45.48871" lon="5.53838">
        <ele>643.84</ele>
        <time>2022-04-30T07:18:30.080Z</time>
      </trkpt>
      <trkpt lat="45.48853" lon="5.53816">
        <ele>644.14</ele>
        <time>2022-04-30T07:18:50.721Z</time>
      </trkpt>
      <trkpt lat="45.48834" lon="5.53797">
        <ele>644.21</ele>
        <time>2022-04-30T07:19:11.922Z</time>
      </trkpt>
      <trkpt lat="45.48819" lon="5.53772">
        <ele>644.24</ele>
        <time>2022-04-30T07:19:35.782Z</time>
      </trkpt>
      <trkpt lat="45.48803" lon="5.53747">
        <ele>645.24</ele>
        <time>2022-04-30T07:19:57.204Z</time>
      </trkpt>
      <trkpt lat="45.48787" lon="5.53723">
        <ele>645.26</ele>
        <time>2022-04-30T07:20:18.000Z</time>
      </trkpt>
      <trkpt lat="45.48771" lon="5.537">
        <ele>645.34</ele>
        <time>2022-04-30T07:20:37.844Z</time>
      </trkpt>
      <trkpt lat="45.48757" lon="5.53675">
        <ele>645.34</ele>
        <time>2022-04-30T07:20:57.738Z</time>
      </trkpt>
      <trkpt lat="45.48739" lon="5.53654">
        <ele>645.33</ele>
        <time>2022-04-30T07:21:18.898Z</time>
      </trkpt>
      <trkpt lat="45.4872" lon="5.53637">
        <ele>645.33</ele>
        <time>2022-04-30T07:21:41.817Z</time>
      </trkpt>
      <trkpt lat="45.48709" lon="5.53608">
        <ele>647.13</ele>
        <time>2022-04-30T07:22:04.718Z</time>
      </trkpt>
      <trkpt lat="45.48692" lon="5.53586">
        <ele>647.73</ele>
        <time>2022-04-30T07:22:26.339Z</time>
      </trkpt>
      <trkpt lat="45.48677" lon="5.5356">
        <ele>651.66</ele>
        <time>2022-04-30T07:22:50.939Z</time>
      </trkpt>
      <trkpt lat="45.48661" lon="5.53538">
        <ele>651.77</ele>
        <time>2022-04-30T07:23:14.000Z</time>
      </trkpt>
      <trkpt lat="45.48643" lon="5.53516">
        <ele>652.62</ele>
        <time>2022-04-30T07:23:38.364Z</time>
      </trkpt>
      <trkpt lat="45.48624" lon="5.53497">
        <ele>652.56</ele>
        <time>2022-04-30T07:24:01.000Z</time>
      </trkpt>
      <trkpt lat="45.48606" lon="5.53477">
        <ele>654.76</ele>
        <time>2022-04-30T07:24:25.000Z</time>
      </trkpt>
      <trkpt lat="45.48588" lon="5.53458">
        <ele>656.3</ele>
        <time>2022-04-30T07:24:49.000Z</time>
      </trkpt>
      <trkpt lat="45.48567" lon="5.53441">
        <ele>658.63</ele>
        <time>2022-04-30T07:25:13.065Z</time>
      </trkpt>
      <trkpt lat="45.48546" lon="5.53429">
        <ele>659.87</ele>
        <time>2022-04-30T07:25:36.983Z</time>
      </trkpt>
      <trkpt lat="45.48524" lon="5.53418">
        <ele>659.19</ele>
        <time>2022-04-30T07:25:58.000Z</time>
      </trkpt>
      <trkpt lat="45.48505" lon="5.534">
        <ele>658.6</ele>
        <time>2022-04-30T07:26:19.066Z</time>
      </trkpt>
      <trkpt lat="45.48486" lon="5.53383">
        <ele>657.89</ele>
        <time>2022-04-30T07:26:41.898Z</time>
      </trkpt>
      <trkpt lat="45.48466" lon="5.53366">
        <ele>655.73</ele>
        <time>2022-04-30T07:27:03.943Z</time>
      </trkpt>
      <trkpt lat="45.48449" lon="5.53345">
        <ele>654.81</ele>
        <time>2022-04-30T07:27:26.046Z</time>
      </trkpt>
      <trkpt lat="45.48431" lon="5.53325">
        <ele>653.8</ele>
        <time>2022-04-30T07:27:48.000Z</time>
      </trkpt>
      <trkpt lat="45.48412" lon="5.53306">
        <ele>653.64</ele>
        <time>2022-04-30T07:28:09.000Z</time>
      </trkpt>
      <trkpt lat="45.48395" lon="5.53285">
        <ele>653.39</ele>
        <time>2022-04-30T07:28:36.465Z</time>
      </trkpt>
      <trkpt lat="45.48376" lon="5.53267">
        <ele>654.05</ele>
        <time>2022-04-30T07:28:58.905Z</time>
      </trkpt>
      <trkpt lat="45.4836" lon="5.53243">
        <ele>654.45</ele>
        <time>2022-04-30T07:29:22.082Z</time>
      </trkpt>
      <trkpt lat="45.48346" lon="5.53218">
        <ele>653.85</ele>
        <time>2022-04-30T07:29:42.860Z</time>
      </trkpt>
      <trkpt lat="45.4833" lon="5.53194">
        <ele>653.72</ele>
        <time>2022-04-30T07:30:04.000Z</time>
      </trkpt>
      <trkpt lat="45.48313" lon="5.53171">
        <ele>653.04</ele>
        <time>2022-04-30T07:30:24.865Z</time>
      </trkpt>
      <trkpt lat="45.48294" lon="5.53152">
        <ele>656.3</ele>
        <time>2022-04-30T07:30:48.006Z</time>
      </trkpt>
      <trkpt lat="45.48274" lon="5.53136">
        <ele>654.07</ele>
        <time>2022-04-30T07:31:10.022Z</time>
      </trkpt>
      <trkpt lat="45.48254" lon="5.53121">
        <ele>656.48</ele>
        <time>2022-04-30T07:31:31.777Z</time>
      </trkpt>
      <trkpt lat="45.48233" lon="5.53108">
        <ele>656.63</ele>
        <time>2022-04-30T07:31:53.344Z</time>
      </trkpt>
      <trkpt lat="45.48212" lon="5.53092">
        <ele>656.67</ele>
        <time>2022-04-30T07:32:15.000Z</time>
      </trkpt>
      <trkpt lat="45.48192" lon="5.5311">
        <ele>660.61</ele>
        <time>2022-04-30T07:32:40.000Z</time>
      </trkpt>
      <trkpt lat="45.48171" lon="5.531">
        <ele>659.6</ele>
        <time>2022-04-30T07:33:03.724Z</time>
      </trkpt>
      <trkpt lat="45.48151" lon="5.53085">
        <ele>658.9</ele>
        <time>2022-04-30T07:33:25.318Z</time>
      </trkpt>
      <trkpt lat="45.48131" lon="5.53069">
        <ele>657.96</ele>
        <time>2022-04-30T07:33:47.622Z</time>
      </trkpt>
      <trkpt lat="45.48113" lon="5.53051">
        <ele>659.69</ele>
        <time>2022-04-30T07:34:09.485Z</time>
      </trkpt>
      <trkpt lat="45.48094" lon="5.5303">
        <ele>657.46</ele>
        <time>2022-04-30T07:34:30.943Z</time>
      </trkpt>
      <trkpt lat="45.48074" lon="5.53013">
        <ele>659.9</ele>
        <time>2022-04-30T07:34:50.857Z</time>
      </trkpt>
      <trkpt lat="45.48055" lon="5.52994">
        <ele>662.92</ele>
        <time>2022-04-30T07:35:12.603Z</time>
      </trkpt>
      <trkpt lat="45.48037" lon="5.52974">
        <ele>671.02</ele>
        <time>2022-04-30T07:35:33.000Z</time>
      </trkpt>
      <trkpt lat="45.48023" lon="5.52948">
        <ele>672.79</ele>
        <time>2022-04-30T07:35:55.859Z</time>
      </trkpt>
      <trkpt lat="45.48003" lon="5.52933">
        <ele>664.12</ele>
        <time>2022-04-30T07:40:58.700Z</time>
      </trkpt>
      <trkpt lat="45.47985" lon="5.52913">
        <ele>664.85</ele>
        <time>2022-04-30T07:41:19.046Z</time>
      </trkpt>
      <trkpt lat="45.47966" lon="5.52894">
        <ele>677.6</ele>
        <time>2022-04-30T07:41:37.086Z</time>
      </trkpt>
      <trkpt lat="45.47946" lon="5.52879">
        <ele>677.2</ele>
        <time>2022-04-30T07:41:57.327Z</time>
      </trkpt>
      <trkpt lat="45.47929" lon="5.52857">
        <ele>680.09</ele>
        <time>2022-04-30T07:42:19.439Z</time>
      </trkpt>
      <trkpt lat="45.4791" lon="5.52841">
        <ele>684.48</ele>
        <time>2022-04-30T07:42:41.898Z</time>
      </trkpt>
      <trkpt lat="45.47887" lon="5.5285">
        <ele>684.51</ele>
        <time>2022-04-30T07:43:03.965Z</time>
      </trkpt>
      <trkpt lat="45.47865" lon="5.52842">
        <ele>692.42</ele>
        <time>2022-04-30T07:43:27.682Z</time>
      </trkpt>
      <trkpt lat="45.47843" lon="5.52838">
        <ele>697.71</ele>
        <time>2022-04-30T07:44:09.766Z</time>
      </trkpt>
      <trkpt lat="45.4782" lon="5.52836">
        <ele>697.7</ele>
        <time>2022-04-30T07:44:39.785Z</time>
      </trkpt>
      <trkpt lat="45.47797" lon="5.52832">
        <ele>701.62</ele>
        <time>2022-04-30T07:45:07.000Z</time>
      </trkpt>
      <trkpt lat="45.47774" lon="5.52833">
        <ele>692.29</ele>
        <time>2022-04-30T07:45:40.802Z</time>
      </trkpt>
      <trkpt lat="45.47752" lon="5.52829">
        <ele>696.43</ele>
        <time>2022-04-30T07:46:13.904Z</time>
      </trkpt>
      <trkpt lat="45.47729" lon="5.52826">
        <ele>694</ele>
        <time>2022-04-30T07:46:44.000Z</time>
      </trkpt>
      <trkpt lat="45.47708" lon="5.52812">
        <ele>694.29</ele>
        <time>2022-04-30T07:47:10.821Z</time>
      </trkpt>
      <trkpt lat="45.47689" lon="5.52792">
        <ele>688.39</ele>
        <time>2022-04-30T07:47:36.680Z</time>
      </trkpt>
      <trkpt lat="45.4767" lon="5.52772">
        <ele>682.26</ele>
        <time>2022-04-30T07:48:05.000Z</time>
      </trkpt>
      <trkpt lat="45.4765" lon="5.52756">
        <ele>685.17</ele>
        <time>2022-04-30T07:48:25.603Z</time>
      </trkpt>
      <trkpt lat="45.47628" lon="5.52748">
        <ele>686.95</ele>
        <time>2022-04-30T07:48:46.000Z</time>
      </trkpt>
      <trkpt lat="45.47606" lon="5.52737">
        <ele>689.73</ele>
        <time>2022-04-30T07:49:06.582Z</time>
      </trkpt>
      <trkpt lat="45.47584" lon="5.52728">
        <ele>689.13</ele>
        <time>2022-04-30T07:49:30.645Z</time>
      </trkpt>
      <trkpt lat="45.47563" lon="5.52714">
        <ele>685.9</ele>
        <time>2022-04-30T07:49:52.019Z</time>
      </trkpt>
      <trkpt lat="45.47542" lon="5.52701">
        <ele>685.96</ele>
        <time>2022-04-30T07:50:13.785Z</time>
      </trkpt>
      <trkpt lat="45.4752" lon="5.52695">
        <ele>689.74</ele>
        <time>2022-04-30T07:50:33.000Z</time>
      </trkpt>
      <trkpt lat="45.47496" lon="5.52694">
        <ele>689.71</ele>
        <time>2022-04-30T07:50:57.000Z</time>
      </trkpt>
      <trkpt lat="45.47473" lon="5.52698">
        <ele>691.6</ele>
        <time>2022-04-30T07:51:22.440Z</time>
      </trkpt>
      <trkpt lat="45.47452" lon="5.52687">
        <ele>692.15</ele>
        <time>2022-04-30T07:51:45.446Z</time>
      </trkpt>
      <trkpt lat="45.47431" lon="5.52671">
        <ele>705.47</ele>
        <time>2022-04-30T07:52:05.945Z</time>
      </trkpt>
      <trkpt lat="45.47408" lon="5.52667">
        <ele>701.31</ele>
        <time>2022-04-30T07:52:28.461Z</time>
      </trkpt>
      <trkpt lat="45.47386" lon="5.52658">
        <ele>701.93</ele>
        <time>2022-04-30T07:52:52.639Z</time>
      </trkpt>
      <trkpt lat="45.47363" lon="5.52654">
        <ele>703.5</ele>
        <time>2022-04-30T07:53:16.961Z</time>
      </trkpt>
      <trkpt lat="45.47341" lon="5.52647">
        <ele>703.36</ele>
        <time>2022-04-30T07:53:38.786Z</time>
      </trkpt>
      <trkpt lat="45.47318" lon="5.52637">
        <ele>700.1</ele>
        <time>2022-04-30T07:54:03.000Z</time>
      </trkpt>
      <trkpt lat="45.47299" lon="5.5262">
        <ele>705.86</ele>
        <time>2022-04-30T07:54:22.522Z</time>
      </trkpt>
      <trkpt lat="45.47278" lon="5.52606">
        <ele>712.9</ele>
        <time>2022-04-30T07:54:43.760Z</time>
      </trkpt>
      <trkpt lat="45.47256" lon="5.52596">
        <ele>710.48</ele>
        <time>2022-04-30T07:55:05.958Z</time>
      </trkpt>
      <trkpt lat="45.47233" lon="5.52592">
        <ele>710.25</ele>
        <time>2022-04-30T07:55:30.743Z</time>
      </trkpt>
      <trkpt lat="45.47215" lon="5.52573">
        <ele>703.95</ele>
        <time>2022-04-30T07:55:56.000Z</time>
      </trkpt>
      <trkpt lat="45.47202" lon="5.52545">
        <ele>703.56</ele>
        <time>2022-04-30T07:56:18.667Z</time>
      </trkpt>
      <trkpt lat="45.47184" lon="5.52526">
        <ele>707.41</ele>
        <time>2022-04-30T07:56:40.520Z</time>
      </trkpt>
      <trkpt lat="45.47166" lon="5.52506">
        <ele>706.72</ele>
        <time>2022-04-30T07:57:02.959Z</time>
      </trkpt>
      <trkpt lat="45.47144" lon="5.52492">
        <ele>708.78</ele>
        <time>2022-04-30T07:57:24.000Z</time>
      </trkpt>
      <trkpt lat="45.47122" lon="5.52479">
        <ele>712.05</ele>
        <time>2022-04-30T07:57:43.698Z</time>
      </trkpt>
      <trkpt lat="45.47105" lon="5.52457">
        <ele>711.14</ele>
        <time>2022-04-30T07:59:34.945Z</time>
      </trkpt>
      <trkpt lat="45.47086" lon="5.5244">
        <ele>713.03</ele>
        <time>2022-04-30T08:00:02.486Z</time>
      </trkpt>
      <trkpt lat="45.47063" lon="5.52439">
        <ele>715.21</ele>
        <time>2022-04-30T08:00:26.000Z</time>
      </trkpt>
      <trkpt lat="45.47043" lon="5.52454">
        <ele>713.61</ele>
        <time>2022-04-30T08:00:53.705Z</time>
      </trkpt>
      <trkpt lat="45.47024" lon="5.52474">
        <ele>710.97</ele>
        <time>2022-04-30T08:01:20.045Z</time>
      </trkpt>
      <trkpt lat="45.47004" lon="5.52492">
        <ele>714.8</ele>
        <time>2022-04-30T08:01:39.918Z</time>
      </trkpt>
      <trkpt lat="45.47002" lon="5.52524">
        <ele>704.33</ele>
        <time>2022-04-30T08:02:01.638Z</time>
      </trkpt>
      <trkpt lat="45.47002" lon="5.52556">
        <ele>701.99</ele>
        <time>2022-04-30T08:02:25.000Z</time>
      </trkpt>
      <trkpt lat="45.47004" lon="5.52589">
        <ele>701.22</ele>
        <time>2022-04-30T08:02:47.784Z</time>
      </trkpt>
      <trkpt lat="45.47005" lon="5.52622">
        <ele>705.44</ele>
        <time>2022-04-30T08:03:08.706Z</time>
      </trkpt>
      <trkpt lat="45.47001" lon="5.52654">
        <ele>710.85</ele>
        <time>2022-04-30T08:03:32.682Z</time>
      </trkpt>
      <trkpt lat="45.47002" lon="5.52687">
        <ele>704.67</ele>
        <time>2022-04-30T08:04:13.882Z</time>
      </trkpt>
      <trkpt lat="45.47009" lon="5.52718">
        <ele>696.1</ele>
        <time>2022-04-30T08:04:44.881Z</time>
      </trkpt>
      <trkpt lat="45.46989" lon="5.52733">
        <ele>687.32</ele>
        <time>2022-04-30T08:05:19.000Z</time>
      </trkpt>
      <trkpt lat="45.46966" lon="5.52731">
        <ele>693.93</ele>
        <time>2022-04-30T08:05:42.822Z</time>
      </trkpt>
      <trkpt lat="45.46943" lon="5.52733">
        <ele>694.95</ele>
        <time>2022-04-30T08:06:05.084Z</time>
      </trkpt>
      <trkpt lat="45.46921" lon="5.52737">
        <ele>696.92</ele>
        <time>2022-04-30T08:06:27.423Z</time>
      </trkpt>
      <trkpt lat="45.46898" lon="5.52741">
        <ele>696.37</ele>
        <time>2022-04-30T08:06:48.623Z</time>
      </trkpt>
      <trkpt lat="45.46879" lon="5.52759">
        <ele>699.41</ele>
        <time>2022-04-30T08:07:09.303Z</time>
      </trkpt>
      <trkpt lat="45.46857" lon="5.52766">
        <ele>697.14</ele>
        <time>2022-04-30T08:07:30.763Z</time>
      </trkpt>
      <trkpt lat="45.46834" lon="5.52765">
        <ele>698.8</ele>
        <time>2022-04-30T08:07:50.466Z</time>
      </trkpt>
      <trkpt lat="45.46811" lon="5.52762">
        <ele>696.68</ele>
        <time>2022-04-30T08:08:10.000Z</time>
      </trkpt>
      <trkpt lat="45.46789" lon="5.52756">
        <ele>701.9</ele>
        <time>2022-04-30T08:08:30.945Z</time>
      </trkpt>
      <trkpt lat="45.46767" lon="5.52744">
        <ele>701.03</ele>
        <time>2022-04-30T08:08:53.057Z</time>
      </trkpt>
      <trkpt lat="45.46746" lon="5.52732">
        <ele>697.4</ele>
        <time>2022-04-30T08:09:18.743Z</time>
      </trkpt>
      <trkpt lat="45.46723" lon="5.5273">
        <ele>698.97</ele>
        <time>2022-04-30T08:09:39.000Z</time>
      </trkpt>
      <trkpt lat="45.46701" lon="5.52726">
        <ele>701.26</ele>
        <time>2022-04-30T08:09:59.002Z</time>
      </trkpt>
      <trkpt lat="45.46681" lon="5.52742">
        <ele>698.16</ele>
        <time>2022-04-30T08:10:18.560Z</time>
      </trkpt>
      <trkpt lat="45.46658" lon="5.52739">
        <ele>701.61</ele>
        <time>2022-04-30T08:10:37.982Z</time>
      </trkpt>
      <trkpt lat="45.46637" lon="5.52725">
        <ele>699.45</ele>
        <time>2022-04-30T08:11:26.924Z</time>
      </trkpt>
      <trkpt lat="45.46615" lon="5.52716">
        <ele>701.3</ele>
        <time>2022-04-30T08:11:48.845Z</time>
      </trkpt>
      <trkpt lat="45.46592" lon="5.52715">
        <ele>698.08</ele>
        <time>2022-04-30T08:12:10.919Z</time>
      </trkpt>
      <trkpt lat="45.4657" lon="5.52719">
        <ele>694.76</ele>
        <time>2022-04-30T08:12:33.887Z</time>
      </trkpt>
      <trkpt lat="45.46548" lon="5.52705">
        <ele>690.16</ele>
        <time>2022-04-30T08:12:57.257Z</time>
      </trkpt>
      <trkpt lat="45.46532" lon="5.52682">
        <ele>686.07</ele>
        <time>2022-04-30T08:13:17.661Z</time>
      </trkpt>
      <trkpt lat="45.46521" lon="5.52654">
        <ele>681.45</ele>
        <time>2022-04-30T08:13:50.000Z</time>
      </trkpt>
      <trkpt lat="45.46513" lon="5.52624">
        <ele>679.63</ele>
        <time>2022-04-30T08:14:09.705Z</time>
      </trkpt>
      <trkpt lat="45.46504" lon="5.52595">
        <ele>689.35</ele>
        <time>2022-04-30T08:14:31.683Z</time>
      </trkpt>
      <trkpt lat="45.46486" lon="5.52574">
        <ele>684.83</ele>
        <time>2022-04-30T08:15:05.486Z</time>
      </trkpt>
      <trkpt lat="45.46479" lon="5.52543">
        <ele>674.5</ele>
        <time>2022-04-30T08:15:28.000Z</time>
      </trkpt>
      <trkpt lat="45.46494" lon="5.52517">
        <ele>668.5</ele>
        <time>2022-04-30T08:15:49.538Z</time>
      </trkpt>
      <trkpt lat="45.46508" lon="5.52492">
        <ele>660.07</ele>
        <time>2022-04-30T08:16:10.086Z</time>
      </trkpt>
      <trkpt lat="45.46506" lon="5.5246">
        <ele>664.82</ele>
        <time>2022-04-30T08:16:33.705Z</time>
      </trkpt>
      <trkpt lat="45.46492" lon="5.52435">
        <ele>663.96</ele>
        <time>2022-04-30T08:17:02.000Z</time>
      </trkpt>
      <trkpt lat="45.46471" lon="5.52422">
        <ele>666.17</ele>
        <time>2022-04-30T08:17:31.000Z</time>
      </trkpt>
      <trkpt lat="45.46449" lon="5.52425">
        <ele>658.34</ele>
        <time>2022-04-30T08:18:02.963Z</time>
      </trkpt>
      <trkpt lat="45.46426" lon="5.52429">
        <ele>652.05</ele>
        <time>2022-04-30T08:18:32.606Z</time>
      </trkpt>
      <trkpt lat="45.46408" lon="5.52409">
        <ele>647.53</ele>
        <time>2022-04-30T08:19:00.597Z</time>
      </trkpt>
      <trkpt lat="45.4639" lon="5.52389">
        <ele>641.97</ele>
        <time>2022-04-30T08:19:28.782Z</time>
      </trkpt>
      <trkpt lat="45.4637" lon="5.52374">
        <ele>638.05</ele>
        <time>2022-04-30T08:19:59.000Z</time>
      </trkpt>
      <trkpt lat="45.46352" lon="5.52356">
        <ele>634.3</ele>
        <time>2022-04-30T08:20:31.305Z</time>
      </trkpt>
      <trkpt lat="45.4634" lon="5.52327">
        <ele>630.5</ele>
        <time>2022-04-30T08:20:58.777Z</time>
      </trkpt>
      <trkpt lat="45.46338" lon="5.52295">
        <ele>625.52</ele>
        <time>2022-04-30T08:21:25.022Z</time>
      </trkpt>
      <trkpt lat="45.46343" lon="5.52263">
        <ele>618.87</ele>
        <time>2022-04-30T08:21:49.006Z</time>
      </trkpt>
      <trkpt lat="45.46334" lon="5.52233">
        <ele>618.26</ele>
        <time>2022-04-30T08:22:30.638Z</time>
      </trkpt>
      <trkpt lat="45.46322" lon="5.52205">
        <ele>616.75</ele>
        <time>2022-04-30T08:22:53.298Z</time>
      </trkpt>
      <trkpt lat="45.46315" lon="5.52175">
        <ele>613.59</ele>
        <time>2022-04-30T08:23:16.746Z</time>
      </trkpt>
      <trkpt lat="45.46309" lon="5.52144">
        <ele>608.57</ele>
        <time>2022-04-30T08:23:40.000Z</time>
      </trkpt>
      <trkpt lat="45.46288" lon="5.52128">
        <ele>611.06</ele>
        <time>2022-04-30T08:24:02.000Z</time>
      </trkpt>
      <trkpt lat="45.46266" lon="5.52124">
        <ele>606.87</ele>
        <time>2022-04-30T08:24:21.306Z</time>
      </trkpt>
      <trkpt lat="45.46243" lon="5.52129">
        <ele>611.15</ele>
        <time>2022-04-30T08:24:39.682Z</time>
      </trkpt>
      <trkpt lat="45.46221" lon="5.52138">
        <ele>610.02</ele>
        <time>2022-04-30T08:26:32.743Z</time>
      </trkpt>
      <trkpt lat="45.46199" lon="5.52132">
        <ele>610.12</ele>
        <time>2022-04-30T08:26:50.676Z</time>
      </trkpt>
      <trkpt lat="45.46175" lon="5.52126">
        <ele>611.45</ele>
        <time>2022-04-30T08:27:13.923Z</time>
      </trkpt>
      <trkpt lat="45.46154" lon="5.52114">
        <ele>611.31</ele>
        <time>2022-04-30T08:27:32.683Z</time>
      </trkpt>
      <trkpt lat="45.46136" lon="5.52096">
        <ele>611.82</ele>
        <time>2022-04-30T08:27:50.837Z</time>
      </trkpt>
      <trkpt lat="45.46117" lon="5.52077">
        <ele>610.52</ele>
        <time>2022-04-30T08:28:10.002Z</time>
      </trkpt>
      <trkpt lat="45.46098" lon="5.52058">
        <ele>610.01</ele>
        <time>2022-04-30T08:28:28.839Z</time>
      </trkpt>
      <trkpt lat="45.4608" lon="5.5204">
        <ele>609.14</ele>
        <time>2022-04-30T08:28:46.523Z</time>
      </trkpt>
      <trkpt lat="45.46061" lon="5.52022">
        <ele>609.38</ele>
        <time>2022-04-30T08:29:05.417Z</time>
      </trkpt>
      <trkpt lat="45.46042" lon="5.52004">
        <ele>608.35</ele>
        <time>2022-04-30T08:29:23.505Z</time>
      </trkpt>
      <trkpt lat="45.46024" lon="5.51984">
        <ele>607.28</ele>
        <time>2022-04-30T08:29:42.063Z</time>
      </trkpt>
      <trkpt lat="45.46006" lon="5.5196">
        <ele>606.92</ele>
        <time>2022-04-30T08:30:01.438Z</time>
      </trkpt>
      <trkpt lat="45.45989" lon="5.51939">
        <ele>606.91</ele>
        <time>2022-04-30T08:30:20.621Z</time>
      </trkpt>
      <trkpt lat="45.45975" lon="5.51914">
        <ele>606.77</ele>
        <time>2022-04-30T08:30:38.786Z</time>
      </trkpt>
      <trkpt lat="45.4597" lon="5.51883">
        <ele>606.28</ele>
        <time>2022-04-30T08:30:57.343Z</time>
      </trkpt>
      <trkpt lat="45.45961" lon="5.51852">
        <ele>605.17</ele>
        <time>2022-04-30T08:31:16.624Z</time>
      </trkpt>
      <trkpt lat="45.45947" lon="5.51827">
        <ele>604.64</ele>
        <time>2022-04-30T08:31:36.045Z</time>
      </trkpt>
      <trkpt lat="45.45942" lon="5.51795">
        <ele>602.19</ele>
        <time>2022-04-30T08:31:55.324Z</time>
      </trkpt>
      <trkpt lat="45.45946" lon="5.51763">
        <ele>600.89</ele>
        <time>2022-04-30T08:32:15.000Z</time>
      </trkpt>
      <trkpt lat="45.45952" lon="5.51731">
        <ele>595.37</ele>
        <time>2022-04-30T08:33:07.263Z</time>
      </trkpt>
      <trkpt lat="45.45958" lon="5.517">
        <ele>587.44</ele>
        <time>2022-04-30T08:33:37.597Z</time>
      </trkpt>
      <trkpt lat="45.45964" lon="5.51669">
        <ele>582.77</ele>
        <time>2022-04-30T08:34:03.000Z</time>
      </trkpt>
      <trkpt lat="45.45975" lon="5.5164">
        <ele>578.1</ele>
        <time>2022-04-30T08:34:28.587Z</time>
      </trkpt>
      <trkpt lat="45.45982" lon="5.51609">
        <ele>572.01</ele>
        <time>2022-04-30T08:34:58.000Z</time>
      </trkpt>
      <trkpt lat="45.45978" lon="5.51577">
        <ele>560.95</ele>
        <time>2022-04-30T08:35:24.647Z</time>
      </trkpt>
      <trkpt lat="45.45963" lon="5.51552">
        <ele>558.79</ele>
        <time>2022-04-30T08:35:50.025Z</time>
      </trkpt>
      <trkpt lat="45.45947" lon="5.5153">
        <ele>554.27</ele>
        <time>2022-04-30T08:36:12.022Z</time>
      </trkpt>
      <trkpt lat="45.45927" lon="5.51514">
        <ele>551.74</ele>
        <time>2022-04-30T08:36:32.559Z</time>
      </trkpt>
      <trkpt lat="45.45907" lon="5.51499">
        <ele>524.15</ele>
        <time>2022-04-30T08:36:52.906Z</time>
      </trkpt>
      <trkpt lat="45.45883" lon="5.51496">
        <ele>555.02</ele>
        <time>2022-04-30T08:37:13.942Z</time>
      </trkpt>
      <trkpt lat="45.4586" lon="5.51492">
        <ele>555.26</ele>
        <time>2022-04-30T08:37:35.000Z</time>
      </trkpt>
      <trkpt lat="45.45846" lon="5.51466">
        <ele>525.34</ele>
        <time>2022-04-30T08:39:27.597Z</time>
      </trkpt>
      <trkpt lat="45.45836" lon="5.51438">
        <ele>525.34</ele>
        <time>2022-04-30T08:39:52.937Z</time>
      </trkpt>
      <trkpt lat="45.45828" lon="5.51408">
        <ele>525.34</ele>
        <time>2022-04-30T08:40:20.045Z</time>
      </trkpt>
      <trkpt lat="45.45813" lon="5.51382">
        <ele>525.34</ele>
        <time>2022-04-30T08:40:46.884Z</time>
      </trkpt>
      <trkpt lat="45.45794" lon="5.51364">
        <ele>530.74</ele>
        <time>2022-04-30T08:41:12.100Z</time>
      </trkpt>
      <trkpt lat="45.45786" lon="5.51334">
        <ele>527.14</ele>
        <time>2022-04-30T08:41:34.779Z</time>
      </trkpt>
      <trkpt lat="45.45777" lon="5.51304">
        <ele>526.74</ele>
        <time>2022-04-30T08:41:59.745Z</time>
      </trkpt>
      <trkpt lat="45.45758" lon="5.51285">
        <ele>523.88</ele>
        <time>2022-04-30T08:42:20.358Z</time>
      </trkpt>
      <trkpt lat="45.4574" lon="5.51265">
        <ele>523.34</ele>
        <time>2022-04-30T08:42:39.003Z</time>
      </trkpt>
      <trkpt lat="45.45721" lon="5.51247">
        <ele>523.24</ele>
        <time>2022-04-30T08:42:57.860Z</time>
      </trkpt>
      <trkpt lat="45.45699" lon="5.51235">
        <ele>522.36</ele>
        <time>2022-04-30T08:43:46.685Z</time>
      </trkpt>
      <trkpt lat="45.45691" lon="5.51205">
        <ele>523.24</ele>
        <time>2022-04-30T08:43:59.001Z</time>
      </trkpt>
      <trkpt lat="45.45694" lon="5.51173">
        <ele>523.34</ele>
        <time>2022-04-30T08:44:18.184Z</time>
      </trkpt>
      <trkpt lat="45.45707" lon="5.51146">
        <ele>521.1</ele>
        <time>2022-04-30T08:44:34.898Z</time>
      </trkpt>
      <trkpt lat="45.45722" lon="5.51122">
        <ele>520.91</ele>
        <time>2022-04-30T08:44:53.763Z</time>
      </trkpt>
      <trkpt lat="45.45736" lon="5.51096">
        <ele>520.85</ele>
        <time>2022-04-30T08:45:12.000Z</time>
      </trkpt>
      <trkpt lat="45.45752" lon="5.51073">
        <ele>519.84</ele>
        <time>2022-04-30T08:45:30.026Z</time>
      </trkpt>
      <trkpt lat="45.45767" lon="5.51049">
        <ele>519.84</ele>
        <time>2022-04-30T08:45:48.382Z</time>
      </trkpt>
      <trkpt lat="45.45778" lon="5.51021">
        <ele>518.85</ele>
        <time>2022-04-30T08:46:05.059Z</time>
      </trkpt>
      <trkpt lat="45.45792" lon="5.50995">
        <ele>518.66</ele>
        <time>2022-04-30T08:46:26.998Z</time>
      </trkpt>
      <trkpt lat="45.45804" lon="5.50967">
        <ele>518.8</ele>
        <time>2022-04-30T08:46:45.701Z</time>
      </trkpt>
      <trkpt lat="45.45808" lon="5.50935">
        <ele>518.85</ele>
        <time>2022-04-30T08:47:05.643Z</time>
      </trkpt>
      <trkpt lat="45.45788" lon="5.5092">
        <ele>518.65</ele>
        <time>2022-04-30T08:47:23.845Z</time>
      </trkpt>
      <trkpt lat="45.45768" lon="5.50904">
        <ele>523.65</ele>
        <time>2022-04-30T08:47:45.000Z</time>
      </trkpt>
      <trkpt lat="45.45752" lon="5.50878">
        <ele>521.15</ele>
        <time>2022-04-30T08:48:06.024Z</time>
      </trkpt>
      <trkpt lat="45.45737" lon="5.50854">
        <ele>521.15</ele>
        <time>2022-04-30T08:48:25.000Z</time>
      </trkpt>
      <trkpt lat="45.45721" lon="5.50828">
        <ele>520.97</ele>
        <time>2022-04-30T08:48:46.061Z</time>
      </trkpt>
      <trkpt lat="45.45706" lon="5.50804">
        <ele>520.44</ele>
        <time>2022-04-30T08:49:06.000Z</time>
      </trkpt>
      <trkpt lat="45.45694" lon="5.50775">
        <ele>521.14</ele>
        <time>2022-04-30T08:49:31.000Z</time>
      </trkpt>
      <trkpt lat="45.45691" lon="5.50742">
        <ele>523.85</ele>
        <time>2022-04-30T08:49:54.705Z</time>
      </trkpt>
      <trkpt lat="45.4569" lon="5.5071">
        <ele>525.42</ele>
        <time>2022-04-30T08:50:21.487Z</time>
      </trkpt>
      <trkpt lat="45.45686" lon="5.50678">
        <ele>525.35</ele>
        <time>2022-04-30T08:50:42.763Z</time>
      </trkpt>
      <trkpt lat="45.4568" lon="5.50645">
        <ele>525.45</ele>
        <time>2022-04-30T08:51:06.643Z</time>
      </trkpt>
      <trkpt lat="45.4568" lon="5.50613">
        <ele>526.35</ele>
        <time>2022-04-30T08:51:30.081Z</time>
      </trkpt>
      <trkpt lat="45.45674" lon="5.5058">
        <ele>526.95</ele>
        <time>2022-04-30T08:51:51.685Z</time>
      </trkpt>
      <trkpt lat="45.45668" lon="5.50549">
        <ele>528.25</ele>
        <time>2022-04-30T08:52:13.605Z</time>
      </trkpt>
      <trkpt lat="45.45662" lon="5.50517">
        <ele>528.05</ele>
        <time>2022-04-30T08:52:33.979Z</time>
      </trkpt>
      <trkpt lat="45.4566" lon="5.50485">
        <ele>527.48</ele>
        <time>2022-04-30T08:53:02.461Z</time>
      </trkpt>
      <trkpt lat="45.45654" lon="5.50454">
        <ele>528.65</ele>
        <time>2022-04-30T09:00:07.345Z</time>
      </trkpt>
      <trkpt lat="45.45639" lon="5.50428">
        <ele>528.25</ele>
        <time>2022-04-30T09:00:28.806Z</time>
      </trkpt>
      <trkpt lat="45.45624" lon="5.50404">
        <ele>528.25</ele>
        <time>2022-04-30T09:00:50.757Z</time>
      </trkpt>
      <trkpt lat="45.4561" lon="5.50377">
        <ele>528.35</ele>
        <time>2022-04-30T09:01:13.744Z</time>
      </trkpt>
      <trkpt lat="45.45599" lon="5.50349">
        <ele>528.54</ele>
        <time>2022-04-30T09:01:32.717Z</time>
      </trkpt>
      <trkpt lat="45.45589" lon="5.5032">
        <ele>528.99</ele>
        <time>2022-04-30T09:01:51.000Z</time>
      </trkpt>
      <trkpt lat="45.45571" lon="5.503">
        <ele>529.07</ele>
        <time>2022-04-30T09:02:11.000Z</time>
      </trkpt>
      <trkpt lat="45.45554" lon="5.50278">
        <ele>529.24</ele>
        <time>2022-04-30T09:02:33.000Z</time>
      </trkpt>
      <trkpt lat="45.45536" lon="5.50258">
        <ele>532.01</ele>
        <time>2022-04-30T09:02:57.006Z</time>
      </trkpt>
      <trkpt lat="45.4552" lon="5.50235">
        <ele>530.84</ele>
        <time>2022-04-30T09:03:20.062Z</time>
      </trkpt>
      <trkpt lat="45.45504" lon="5.50213">
        <ele>534.64</ele>
        <time>2022-04-30T09:03:41.244Z</time>
      </trkpt>
      <trkpt lat="45.4549" lon="5.50187">
        <ele>534.64</ele>
        <time>2022-04-30T09:04:04.963Z</time>
      </trkpt>
      <trkpt lat="45.45476" lon="5.50162">
        <ele>534.64</ele>
        <time>2022-04-30T09:04:28.000Z</time>
      </trkpt>
      <trkpt lat="45.45461" lon="5.50136">
        <ele>539.84</ele>
        <time>2022-04-30T09:04:56.760Z</time>
      </trkpt>
      <trkpt lat="45.45443" lon="5.50117">
        <ele>539.84</ele>
        <time>2022-04-30T09:05:20.044Z</time>
      </trkpt>
      <trkpt lat="45.45427" lon="5.50095">
        <ele>540.04</ele>
        <time>2022-04-30T09:05:43.946Z</time>
      </trkpt>
      <trkpt lat="45.4541" lon="5.50071">
        <ele>533.87</ele>
        <time>2022-04-30T09:06:06.626Z</time>
      </trkpt>
      <trkpt lat="45.45394" lon="5.50048">
        <ele>535.66</ele>
        <time>2022-04-30T09:06:29.058Z</time>
      </trkpt>
      <trkpt lat="45.4538" lon="5.50022">
        <ele>537.12</ele>
        <time>2022-04-30T09:06:51.622Z</time>
      </trkpt>
      <trkpt lat="45.45365" lon="5.49998">
        <ele>538.39</ele>
        <time>2022-04-30T09:07:12.000Z</time>
      </trkpt>
      <trkpt lat="45.45352" lon="5.49971">
        <ele>540.09</ele>
        <time>2022-04-30T09:07:34.000Z</time>
      </trkpt>
      <trkpt lat="45.45338" lon="5.49946">
        <ele>537.29</ele>
        <time>2022-04-30T09:07:56.000Z</time>
      </trkpt>
      <trkpt lat="45.45324" lon="5.49919">
        <ele>535.92</ele>
        <time>2022-04-30T09:08:18.425Z</time>
      </trkpt>
      <trkpt lat="45.45312" lon="5.49891">
        <ele>537.35</ele>
        <time>2022-04-30T09:08:40.846Z</time>
      </trkpt>
      <trkpt lat="45.45306" lon="5.4986">
        <ele>541.34</ele>
        <time>2022-04-30T09:09:05.899Z</time>
      </trkpt>
      <trkpt lat="45.45301" lon="5.49828">
        <ele>543.24</ele>
        <time>2022-04-30T09:09:29.522Z</time>
      </trkpt>
      <trkpt lat="45.45293" lon="5.49797">
        <ele>543.24</ele>
        <time>2022-04-30T09:09:53.018Z</time>
      </trkpt>
      <trkpt lat="45.45285" lon="5.49767">
        <ele>541.74</ele>
        <time>2022-04-30T09:10:13.538Z</time>
      </trkpt>
      <trkpt lat="45.45271" lon="5.4974">
        <ele>541.73</ele>
        <time>2022-04-30T09:10:35.565Z</time>
      </trkpt>
      <trkpt lat="45.45257" lon="5.49716">
        <ele>541.73</ele>
        <time>2022-04-30T09:12:40.906Z</time>
      </trkpt>
      <trkpt lat="45.45243" lon="5.49689">
        <ele>541.62</ele>
        <time>2022-04-30T09:13:02.706Z</time>
      </trkpt>
      <trkpt lat="45.45229" lon="5.49664">
        <ele>541.73</ele>
        <time>2022-04-30T09:13:23.822Z</time>
      </trkpt>
      <trkpt lat="45.4521" lon="5.49644">
        <ele>539.73</ele>
        <time>2022-04-30T09:13:43.844Z</time>
      </trkpt>
      <trkpt lat="45.45192" lon="5.49624">
        <ele>537.55</ele>
        <time>2022-04-30T09:14:05.565Z</time>
      </trkpt>
      <trkpt lat="45.45172" lon="5.49608">
        <ele>536.84</ele>
        <time>2022-04-30T09:14:25.000Z</time>
      </trkpt>
      <trkpt lat="45.45153" lon="5.49591">
        <ele>536.48</ele>
        <time>2022-04-30T09:14:45.443Z</time>
      </trkpt>
      <trkpt lat="45.45148" lon="5.4956">
        <ele>541.73</ele>
        <time>2022-04-30T09:15:53.722Z</time>
      </trkpt>
      <trkpt lat="45.45148" lon="5.49528">
        <ele>540.17</ele>
        <time>2022-04-30T09:16:22.086Z</time>
      </trkpt>
      <trkpt lat="45.45142" lon="5.49496">
        <ele>542.79</ele>
        <time>2022-04-30T09:16:48.906Z</time>
      </trkpt>
      <trkpt lat="45.45132" lon="5.49468">
        <ele>547.71</ele>
        <time>2022-04-30T09:17:25.000Z</time>
      </trkpt>
      <trkpt lat="45.45115" lon="5.49446">
        <ele>548.74</ele>
        <time>2022-04-30T09:17:55.782Z</time>
      </trkpt>
      <trkpt lat="45.45094" lon="5.49431">
        <ele>552.58</ele>
        <time>2022-04-30T09:18:27.000Z</time>
      </trkpt>
      <trkpt lat="45.45077" lon="5.49409">
        <ele>554.05</ele>
        <time>2022-04-30T09:19:02.243Z</time>
      </trkpt>
      <trkpt lat="45.4506" lon="5.49387">
        <ele>553.36</ele>
        <time>2022-04-30T09:19:33.802Z</time>
      </trkpt>
      <trkpt lat="45.45041" lon="5.49368">
        <ele>535.12</ele>
        <time>2022-04-30T09:20:02.939Z</time>
      </trkpt>
      <trkpt lat="45.45021" lon="5.49352">
        <ele>558.96</ele>
        <time>2022-04-30T09:20:34.000Z</time>
      </trkpt>
      <trkpt lat="45.45001" lon="5.49339">
        <ele>563.1</ele>
        <time>2022-04-30T09:21:04.616Z</time>
      </trkpt>
      <trkpt lat="45.44988" lon="5.49312">
        <ele>568.66</ele>
        <time>2022-04-30T09:22:15.864Z</time>
      </trkpt>
      <trkpt lat="45.44977" lon="5.49282">
        <ele>571.82</ele>
        <time>2022-04-30T09:22:48.000Z</time>
      </trkpt>
      <trkpt lat="45.4496" lon="5.4926">
        <ele>575.09</ele>
        <time>2022-04-30T09:23:21.767Z</time>
      </trkpt>
      <trkpt lat="45.44944" lon="5.49237">
        <ele>579.55</ele>
        <time>2022-04-30T09:23:55.000Z</time>
      </trkpt>
      <trkpt lat="45.44932" lon="5.4921">
        <ele>584.53</ele>
        <time>2022-04-30T09:24:28.000Z</time>
      </trkpt>
      <trkpt lat="45.44924" lon="5.4918">
        <ele>586.69</ele>
        <time>2022-04-30T09:25:02.000Z</time>
      </trkpt>
      <trkpt lat="45.44917" lon="5.49148">
        <ele>592.1</ele>
        <time>2022-04-30T09:25:33.000Z</time>
      </trkpt>
      <trkpt lat="45.44912" lon="5.49116">
        <ele>560.02</ele>
        <time>2022-04-30T09:26:35.558Z</time>
      </trkpt>
      <trkpt lat="45.44906" lon="5.49085">
        <ele>560.32</ele>
        <time>2022-04-30T09:27:07.000Z</time>
      </trkpt>
      <trkpt lat="45.44895" lon="5.49057">
        <ele>560.32</ele>
        <time>2022-04-30T09:27:39.003Z</time>
      </trkpt>
      <trkpt lat="45.44883" lon="5.49029">
        <ele>560.32</ele>
        <time>2022-04-30T09:28:09.466Z</time>
      </trkpt>
      <trkpt lat="45.44871" lon="5.49002">
        <ele>560.32</ele>
        <time>2022-04-30T09:28:43.600Z</time>
      </trkpt>
      <trkpt lat="45.44858" lon="5.48975">
        <ele>610.1</ele>
        <time>2022-04-30T09:29:06.636Z</time>
      </trkpt>
      <trkpt lat="45.44843" lon="5.48949">
        <ele>612.42</ele>
        <time>2022-04-30T09:29:35.000Z</time>
      </trkpt>
      <trkpt lat="45.44831" lon="5.48921">
        <ele>610.7</ele>
        <time>2022-04-30T09:30:04.745Z</time>
      </trkpt>
      <trkpt lat="45.44819" lon="5.48894">
        <ele>605.53</ele>
        <time>2022-04-30T09:30:32.000Z</time>
      </trkpt>
      <trkpt lat="45.44808" lon="5.48866">
        <ele>603.52</ele>
        <time>2022-04-30T09:30:54.897Z</time>
      </trkpt>
      <trkpt lat="45.44796" lon="5.48838">
        <ele>599.12</ele>
        <time>2022-04-30T09:31:21.722Z</time>
      </trkpt>
      <trkpt lat="45.44785" lon="5.48809">
        <ele>603.22</ele>
        <time>2022-04-30T09:31:45.000Z</time>
      </trkpt>
      <trkpt lat="45.44772" lon="5.48782">
        <ele>602.88</ele>
        <time>2022-04-30T09:32:09.958Z</time>
      </trkpt>
      <trkpt lat="45.44759" lon="5.48755">
        <ele>606.05</ele>
        <time>2022-04-30T09:32:36.358Z</time>
      </trkpt>
      <trkpt lat="45.44748" lon="5.48726">
        <ele>606.29</ele>
        <time>2022-04-30T09:33:02.882Z</time>
      </trkpt>
      <trkpt lat="45.44738" lon="5.48698">
        <ele>601.11</ele>
        <time>2022-04-30T09:33:27.967Z</time>
      </trkpt>
      <trkpt lat="45.44726" lon="5.48669">
        <ele>606.97</ele>
        <time>2022-04-30T09:33:48.938Z</time>
      </trkpt>
      <trkpt lat="45.44715" lon="5.4864">
        <ele>605.8</ele>
        <time>2022-04-30T09:34:11.000Z</time>
      </trkpt>
      <trkpt lat="45.447" lon="5.48615">
        <ele>608.74</ele>
        <time>2022-04-30T09:35:27.401Z</time>
      </trkpt>
      <trkpt lat="45.44688" lon="5.48588">
        <ele>608.8</ele>
        <time>2022-04-30T09:35:54.981Z</time>
      </trkpt>
      <trkpt lat="45.44675" lon="5.48561">
        <ele>606.78</ele>
        <time>2022-04-30T09:36:19.000Z</time>
      </trkpt>
      <trkpt lat="45.44665" lon="5.48532">
        <ele>602.91</ele>
        <time>2022-04-30T09:36:44.045Z</time>
      </trkpt>
      <trkpt lat="45.44658" lon="5.485">
        <ele>600.82</ele>
        <time>2022-04-30T09:37:07.544Z</time>
      </trkpt>
      <trkpt lat="45.44658" lon="5.48467">
        <ele>602.27</ele>
        <time>2022-04-30T09:37:28.659Z</time>
      </trkpt>
      <trkpt lat="45.44654" lon="5.48436">
        <ele>606.26</ele>
        <time>2022-04-30T09:37:51.000Z</time>
      </trkpt>
      <trkpt lat="45.4464" lon="5.4841">
        <ele>599.24</ele>
        <time>2022-04-30T09:38:16.000Z</time>
      </trkpt>
      <trkpt lat="45.44618" lon="5.48408">
        <ele>597.38</ele>
        <time>2022-04-30T09:38:41.941Z</time>
      </trkpt>
      <trkpt lat="45.44595" lon="5.48409">
        <ele>596.72</ele>
        <time>2022-04-30T09:39:05.064Z</time>
      </trkpt>
      <trkpt lat="45.44573" lon="5.484">
        <ele>598.4</ele>
        <time>2022-04-30T09:39:28.063Z</time>
      </trkpt>
      <trkpt lat="45.44557" lon="5.48377">
        <ele>595.03</ele>
        <time>2022-04-30T09:39:50.986Z</time>
      </trkpt>
      <trkpt lat="45.44539" lon="5.48357">
        <ele>593.79</ele>
        <time>2022-04-30T09:40:12.677Z</time>
      </trkpt>
      <trkpt lat="45.44527" lon="5.4833">
        <ele>592.72</ele>
        <time>2022-04-30T09:40:37.003Z</time>
      </trkpt>
      <trkpt lat="45.44515" lon="5.48298">
        <ele>595.93</ele>
        <time>2022-04-30T09:41:08.000Z</time>
      </trkpt>
      <trkpt lat="45.4451" lon="5.48267">
        <ele>597.97</ele>
        <time>2022-04-30T09:44:44.877Z</time>
      </trkpt>
      <trkpt lat="45.44509" lon="5.48233">
        <ele>609.67</ele>
        <time>2022-04-30T09:45:07.000Z</time>
      </trkpt>
      <trkpt lat="45.4451" lon="5.48201">
        <ele>607.6</ele>
        <time>2022-04-30T09:45:35.000Z</time>
      </trkpt>
      <trkpt lat="45.44509" lon="5.48169">
        <ele>609.38</ele>
        <time>2022-04-30T09:46:15.478Z</time>
      </trkpt>
      <trkpt lat="45.44494" lon="5.48144">
        <ele>597.41</ele>
        <time>2022-04-30T09:46:47.998Z</time>
      </trkpt>
      <trkpt lat="45.44471" lon="5.48138">
        <ele>591.95</ele>
        <time>2022-04-30T09:47:13.000Z</time>
      </trkpt>
      <trkpt lat="45.44448" lon="5.48136">
        <ele>600.85</ele>
        <time>2022-04-30T09:47:42.000Z</time>
      </trkpt>
      <trkpt lat="45.44435" lon="5.48109">
        <ele>604.59</ele>
        <time>2022-04-30T09:48:01.625Z</time>
      </trkpt>
      <trkpt lat="45.44421" lon="5.48084">
        <ele>599.46</ele>
        <time>2022-04-30T09:48:27.000Z</time>
      </trkpt>
      <trkpt lat="45.44406" lon="5.48058">
        <ele>606.48</ele>
        <time>2022-04-30T09:48:48.783Z</time>
      </trkpt>
      <trkpt lat="45.44391" lon="5.48033">
        <ele>613.33</ele>
        <time>2022-04-30T09:49:15.685Z</time>
      </trkpt>
      <trkpt lat="45.44375" lon="5.4801">
        <ele>616.53</ele>
        <time>2022-04-30T09:49:44.581Z</time>
      </trkpt>
      <trkpt lat="45.44358" lon="5.47989">
        <ele>622.88</ele>
        <time>2022-04-30T09:50:06.639Z</time>
      </trkpt>
      <trkpt lat="45.44348" lon="5.47959">
        <ele>624.49</ele>
        <time>2022-04-30T09:50:39.754Z</time>
      </trkpt>
      <trkpt lat="45.44331" lon="5.47938">
        <ele>625.03</ele>
        <time>2022-04-30T09:51:11.601Z</time>
      </trkpt>
      <trkpt lat="45.4431" lon="5.47926">
        <ele>625.13</ele>
        <time>2022-04-30T09:51:41.000Z</time>
      </trkpt>
      <trkpt lat="45.44288" lon="5.47919">
        <ele>626.24</ele>
        <time>2022-04-30T09:52:08.002Z</time>
      </trkpt>
      <trkpt lat="45.44269" lon="5.47901">
        <ele>626.98</ele>
        <time>2022-04-30T09:52:31.760Z</time>
      </trkpt>
      <trkpt lat="45.44247" lon="5.47889">
        <ele>622.71</ele>
        <time>2022-04-30T09:52:55.865Z</time>
      </trkpt>
      <trkpt lat="45.44225" lon="5.47877">
        <ele>630.62</ele>
        <time>2022-04-30T09:53:23.223Z</time>
      </trkpt>
      <trkpt lat="45.44211" lon="5.47852">
        <ele>634.15</ele>
        <time>2022-04-30T09:53:44.858Z</time>
      </trkpt>
      <trkpt lat="45.44189" lon="5.47845">
        <ele>629.6</ele>
        <time>2022-04-30T09:54:07.867Z</time>
      </trkpt>
      <trkpt lat="45.44167" lon="5.47831">
        <ele>628.36</ele>
        <time>2022-04-30T09:54:33.785Z</time>
      </trkpt>
      <trkpt lat="45.44159" lon="5.47801">
        <ele>633.55</ele>
        <time>2022-04-30T09:54:54.459Z</time>
      </trkpt>
      <trkpt lat="45.4414" lon="5.47784">
        <ele>619.4</ele>
        <time>2022-04-30T09:55:19.657Z</time>
      </trkpt>
      <trkpt lat="45.44125" lon="5.47759">
        <ele>612.73</ele>
        <time>2022-04-30T09:55:51.378Z</time>
      </trkpt>
      <trkpt lat="45.44117" lon="5.47729">
        <ele>615.95</ele>
        <time>2022-04-30T09:56:18.519Z</time>
      </trkpt>
      <trkpt lat="45.44101" lon="5.47705">
        <ele>610.76</ele>
        <time>2022-04-30T09:56:46.822Z</time>
      </trkpt>
      <trkpt lat="45.44079" lon="5.47696">
        <ele>607.82</ele>
        <time>2022-04-30T09:57:13.305Z</time>
      </trkpt>
      <trkpt lat="45.44058" lon="5.47685">
        <ele>606.58</ele>
        <time>2022-04-30T09:57:39.023Z</time>
      </trkpt>
      <trkpt lat="45.44036" lon="5.47694">
        <ele>606.86</ele>
        <time>2022-04-30T09:58:02.743Z</time>
      </trkpt>
      <trkpt lat="45.44013" lon="5.47699">
        <ele>604.38</ele>
        <time>2022-04-30T09:58:26.885Z</time>
      </trkpt>
      <trkpt lat="45.4399" lon="5.47699">
        <ele>602.51</ele>
        <time>2022-04-30T09:58:52.582Z</time>
      </trkpt>
      <trkpt lat="45.43968" lon="5.47688">
        <ele>597.28</ele>
        <time>2022-04-30T09:59:14.505Z</time>
      </trkpt>
      <trkpt lat="45.43947" lon="5.47676">
        <ele>593.35</ele>
        <time>2022-04-30T09:59:37.945Z</time>
      </trkpt>
      <trkpt lat="45.43925" lon="5.47668">
        <ele>592.81</ele>
        <time>2022-04-30T09:59:58.302Z</time>
      </trkpt>
      <trkpt lat="45.43902" lon="5.47659">
        <ele>593.76</ele>
        <time>2022-04-30T10:00:18.062Z</time>
      </trkpt>
      <trkpt lat="45.43879" lon="5.47655">
        <ele>593.64</ele>
        <time>2022-04-30T10:00:36.843Z</time>
      </trkpt>
      <trkpt lat="45.43857" lon="5.47647">
        <ele>592.08</ele>
        <time>2022-04-30T10:00:57.000Z</time>
      </trkpt>
      <trkpt lat="45.43835" lon="5.47637">
        <ele>595.04</ele>
        <time>2022-04-30T10:01:15.000Z</time>
      </trkpt>
      <trkpt lat="45.43813" lon="5.47628">
        <ele>595.71</ele>
        <time>2022-04-30T10:01:33.543Z</time>
      </trkpt>
      <trkpt lat="45.43791" lon="5.47619">
        <ele>595.5</ele>
        <time>2022-04-30T10:01:52.880Z</time>
      </trkpt>
      <trkpt lat="45.4377" lon="5.47611">
        <ele>594.36</ele>
        <time>2022-04-30T10:02:11.922Z</time>
      </trkpt>
      <trkpt lat="45.43749" lon="5.47597">
        <ele>592.29</ele>
        <time>2022-04-30T10:02:31.242Z</time>
      </trkpt>
      <trkpt lat="45.43727" lon="5.47584">
        <ele>592.28</ele>
        <time>2022-04-30T10:02:50.465Z</time>
      </trkpt>
      <trkpt lat="45.43706" lon="5.47571">
        <ele>592.75</ele>
        <time>2022-04-30T10:03:11.000Z</time>
      </trkpt>
      <trkpt lat="45.43684" lon="5.47559">
        <ele>591.03</ele>
        <time>2022-04-30T10:03:32.803Z</time>
      </trkpt>
      <trkpt lat="45.43663" lon="5.47548">
        <ele>589.97</ele>
        <time>2022-04-30T10:03:52.000Z</time>
      </trkpt>
      <trkpt lat="45.43641" lon="5.47539">
        <ele>588.52</ele>
        <time>2022-04-30T10:04:12.084Z</time>
      </trkpt>
      <trkpt lat="45.43619" lon="5.4753">
        <ele>588.86</ele>
        <time>2022-04-30T10:04:31.826Z</time>
      </trkpt>
      <trkpt lat="45.43597" lon="5.47522">
        <ele>587.52</ele>
        <time>2022-04-30T10:04:52.000Z</time>
      </trkpt>
      <trkpt lat="45.43576" lon="5.47512">
        <ele>586.64</ele>
        <time>2022-04-30T10:05:11.080Z</time>
      </trkpt>
      <trkpt lat="45.43554" lon="5.47501">
        <ele>585.15</ele>
        <time>2022-04-30T10:05:31.000Z</time>
      </trkpt>
      <trkpt lat="45.43533" lon="5.47487">
        <ele>582.81</ele>
        <time>2022-04-30T10:05:50.986Z</time>
      </trkpt>
      <trkpt lat="45.43513" lon="5.47473">
        <ele>581.36</ele>
        <time>2022-04-30T10:06:11.043Z</time>
      </trkpt>
      <trkpt lat="45.43498" lon="5.47447">
        <ele>578.86</ele>
        <time>2022-04-30T10:06:32.901Z</time>
      </trkpt>
      <trkpt lat="45.43485" lon="5.4742">
        <ele>577.55</ele>
        <time>2022-04-30T10:06:53.881Z</time>
      </trkpt>
      <trkpt lat="45.4347" lon="5.47396">
        <ele>578.23</ele>
        <time>2022-04-30T10:07:12.566Z</time>
      </trkpt>
      <trkpt lat="45.43453" lon="5.47375">
        <ele>578.58</ele>
        <time>2022-04-30T10:07:32.039Z</time>
      </trkpt>
      <trkpt lat="45.43435" lon="5.47354">
        <ele>578.78</ele>
        <time>2022-04-30T10:07:51.000Z</time>
      </trkpt>
      <trkpt lat="45.43416" lon="5.47334">
        <ele>577.85</ele>
        <time>2022-04-30T10:08:11.465Z</time>
      </trkpt>
      <trkpt lat="45.43399" lon="5.47312">
        <ele>577.8</ele>
        <time>2022-04-30T10:08:42.063Z</time>
      </trkpt>
      <trkpt lat="45.43388" lon="5.47284">
        <ele>575.5</ele>
        <time>2022-04-30T10:09:02.000Z</time>
      </trkpt>
      <trkpt lat="45.43377" lon="5.47254">
        <ele>574.54</ele>
        <time>2022-04-30T10:09:21.902Z</time>
      </trkpt>
      <trkpt lat="45.43364" lon="5.47227">
        <ele>574.77</ele>
        <time>2022-04-30T10:09:41.942Z</time>
      </trkpt>
      <trkpt lat="45.43347" lon="5.47206">
        <ele>579.81</ele>
        <time>2022-04-30T10:10:01.501Z</time>
      </trkpt>
      <trkpt lat="45.43327" lon="5.4719">
        <ele>581.27</ele>
        <time>2022-04-30T10:10:22.262Z</time>
      </trkpt>
      <trkpt lat="45.43306" lon="5.47171">
        <ele>584.49</ele>
        <time>2022-04-30T10:10:53.000Z</time>
      </trkpt>
      <trkpt lat="45.43297" lon="5.47142">
        <ele>580.01</ele>
        <time>2022-04-30T10:11:19.903Z</time>
      </trkpt>
      <trkpt lat="45.43295" lon="5.4711">
        <ele>578.32</ele>
        <time>2022-04-30T10:11:46.906Z</time>
      </trkpt>
      <trkpt lat="45.43294" lon="5.47078">
        <ele>579.8</ele>
        <time>2022-04-30T10:12:09.000Z</time>
      </trkpt>
      <trkpt lat="45.43288" lon="5.47046">
        <ele>580.42</ele>
        <time>2022-04-30T10:12:31.059Z</time>
      </trkpt>
      <trkpt lat="45.43285" lon="5.47014">
        <ele>586.66</ele>
        <time>2022-04-30T10:12:52.482Z</time>
      </trkpt>
      <trkpt lat="45.43282" lon="5.46982">
        <ele>586.66</ele>
        <time>2022-04-30T10:13:12.926Z</time>
      </trkpt>
      <trkpt lat="45.43275" lon="5.46951">
        <ele>585.11</ele>
        <time>2022-04-30T10:14:33.778Z</time>
      </trkpt>
      <trkpt lat="45.43263" lon="5.46921">
        <ele>584.86</ele>
        <time>2022-04-30T10:14:53.061Z</time>
      </trkpt>
      <trkpt lat="45.43253" lon="5.46891">
        <ele>584.86</ele>
        <time>2022-04-30T10:15:12.680Z</time>
      </trkpt>
      <trkpt lat="45.43251" lon="5.46859">
        <ele>584.46</ele>
        <time>2022-04-30T10:15:31.778Z</time>
      </trkpt>
      <trkpt lat="45.43243" lon="5.46828">
        <ele>584.96</ele>
        <time>2022-04-30T10:15:51.003Z</time>
      </trkpt>
      <trkpt lat="45.43235" lon="5.46798">
        <ele>584.46</ele>
        <time>2022-04-30T10:16:18.000Z</time>
      </trkpt>
      <trkpt lat="45.43225" lon="5.46768">
        <ele>584.46</ele>
        <time>2022-04-30T10:16:38.779Z</time>
      </trkpt>
      <trkpt lat="45.43216" lon="5.46739">
        <ele>584.76</ele>
        <time>2022-04-30T10:17:01.751Z</time>
      </trkpt>
      <trkpt lat="45.43199" lon="5.46717">
        <ele>583.96</ele>
        <time>2022-04-30T10:17:21.946Z</time>
      </trkpt>
      <trkpt lat="45.43187" lon="5.4669">
        <ele>583.76</ele>
        <time>2022-04-30T10:17:40.623Z</time>
      </trkpt>
      <trkpt lat="45.43174" lon="5.46662">
        <ele>583.66</ele>
        <time>2022-04-30T10:18:09.000Z</time>
      </trkpt>
      <trkpt lat="45.4316" lon="5.46637">
        <ele>583.35</ele>
        <time>2022-04-30T10:18:29.000Z</time>
      </trkpt>
      <trkpt lat="45.43146" lon="5.46611">
        <ele>582.86</ele>
        <time>2022-04-30T10:18:50.122Z</time>
      </trkpt>
      <trkpt lat="45.43133" lon="5.46584">
        <ele>581.75</ele>
        <time>2022-04-30T10:19:19.002Z</time>
      </trkpt>
      <trkpt lat="45.43122" lon="5.46555">
        <ele>581.72</ele>
        <time>2022-04-30T10:19:39.840Z</time>
      </trkpt>
      <trkpt lat="45.43113" lon="5.46525">
        <ele>581.25</ele>
        <time>2022-04-30T10:20:01.764Z</time>
      </trkpt>
      <trkpt lat="45.43107" lon="5.46494">
        <ele>577.36</ele>
        <time>2022-04-30T10:20:22.562Z</time>
      </trkpt>
      <trkpt lat="45.43088" lon="5.46477">
        <ele>572.8</ele>
        <time>2022-04-30T10:20:48.945Z</time>
      </trkpt>
      <trkpt lat="45.43067" lon="5.46464">
        <ele>571.21</ele>
        <time>2022-04-30T10:21:09.752Z</time>
      </trkpt>
      <trkpt lat="45.43044" lon="5.46455">
        <ele>571.96</ele>
        <time>2022-04-30T10:21:30.000Z</time>
      </trkpt>
      <trkpt lat="45.43021" lon="5.4645">
        <ele>554.18</ele>
        <time>2022-04-30T10:21:50.000Z</time>
      </trkpt>
      <trkpt lat="45.42998" lon="5.46444">
        <ele>548.65</ele>
        <time>2022-04-30T10:22:10.481Z</time>
      </trkpt>
      <trkpt lat="45.42976" lon="5.46436">
        <ele>548.65</ele>
        <time>2022-04-30T10:22:29.561Z</time>
      </trkpt>
      <trkpt lat="45.42954" lon="5.46427">
        <ele>570.11</ele>
        <time>2022-04-30T10:22:50.380Z</time>
      </trkpt>
      <trkpt lat="45.42932" lon="5.46421">
        <ele>569.75</ele>
        <time>2022-04-30T10:23:32.142Z</time>
      </trkpt>
      <trkpt lat="45.42909" lon="5.46415">
        <ele>568.41</ele>
        <time>2022-04-30T10:23:52.885Z</time>
      </trkpt>
      <trkpt lat="45.42886" lon="5.46414">
        <ele>565.68</ele>
        <time>2022-04-30T10:24:13.406Z</time>
      </trkpt>
      <trkpt lat="45.42863" lon="5.46411">
        <ele>564.11</ele>
        <time>2022-04-30T10:24:33.000Z</time>
      </trkpt>
      <trkpt lat="45.42839" lon="5.46411">
        <ele>563.01</ele>
        <time>2022-04-30T10:24:52.784Z</time>
      </trkpt>
      <trkpt lat="45.42816" lon="5.46413">
        <ele>562.61</ele>
        <time>2022-04-30T10:25:10.759Z</time>
      </trkpt>
      <trkpt lat="45.42794" lon="5.46417">
        <ele>562.44</ele>
        <time>2022-04-30T10:25:29.945Z</time>
      </trkpt>
      <trkpt lat="45.42771" lon="5.46422">
        <ele>562.42</ele>
        <time>2022-04-30T10:25:49.746Z</time>
      </trkpt>
      <trkpt lat="45.42749" lon="5.46426">
        <ele>561.12</ele>
        <time>2022-04-30T10:26:09.070Z</time>
      </trkpt>
      <trkpt lat="45.42726" lon="5.46431">
        <ele>560.22</ele>
        <time>2022-04-30T10:26:27.838Z</time>
      </trkpt>
      <trkpt lat="45.42704" lon="5.46434">
        <ele>559.02</ele>
        <time>2022-04-30T10:26:47.638Z</time>
      </trkpt>
      <trkpt lat="45.42681" lon="5.46437">
        <ele>558.38</ele>
        <time>2022-04-30T10:27:05.958Z</time>
      </trkpt>
      <trkpt lat="45.42659" lon="5.46439">
        <ele>557.81</ele>
        <time>2022-04-30T10:27:26.182Z</time>
      </trkpt>
      <trkpt lat="45.42635" lon="5.46437">
        <ele>557.19</ele>
        <time>2022-04-30T10:27:46.779Z</time>
      </trkpt>
      <trkpt lat="45.42616" lon="5.46455">
        <ele>556.68</ele>
        <time>2022-04-30T10:28:45.382Z</time>
      </trkpt>
      <trkpt lat="45.42619" lon="5.46424">
        <ele>553.24</ele>
        <time>2022-04-30T10:55:11.000Z</time>
      </trkpt>
      <trkpt lat="45.4262" lon="5.46392">
        <ele>553.88</ele>
        <time>2022-04-30T10:55:35.464Z</time>
      </trkpt>
      <trkpt lat="45.42624" lon="5.46359">
        <ele>554.29</ele>
        <time>2022-04-30T10:55:57.818Z</time>
      </trkpt>
      <trkpt lat="45.42629" lon="5.46328">
        <ele>555.73</ele>
        <time>2022-04-30T10:56:17.962Z</time>
      </trkpt>
      <trkpt lat="45.42635" lon="5.46297">
        <ele>556.43</ele>
        <time>2022-04-30T10:56:39.721Z</time>
      </trkpt>
      <trkpt lat="45.42642" lon="5.46266">
        <ele>556.48</ele>
        <time>2022-04-30T10:57:00.719Z</time>
      </trkpt>
      <trkpt lat="45.42648" lon="5.46234">
        <ele>557.29</ele>
        <time>2022-04-30T10:57:22.545Z</time>
      </trkpt>
      <trkpt lat="45.42653" lon="5.46201">
        <ele>557.15</ele>
        <time>2022-04-30T10:57:43.785Z</time>
      </trkpt>
      <trkpt lat="45.42656" lon="5.46168">
        <ele>561.27</ele>
        <time>2022-04-30T10:58:07.000Z</time>
      </trkpt>
      <trkpt lat="45.42659" lon="5.46136">
        <ele>561.6</ele>
        <time>2022-04-30T10:58:27.406Z</time>
      </trkpt>
      <trkpt lat="45.42661" lon="5.46103">
        <ele>562.36</ele>
        <time>2022-04-30T10:58:49.164Z</time>
      </trkpt>
      <trkpt lat="45.42661" lon="5.4607">
        <ele>562.24</ele>
        <time>2022-04-30T10:59:10.760Z</time>
      </trkpt>
      <trkpt lat="45.4266" lon="5.46038">
        <ele>561.41</ele>
        <time>2022-04-30T10:59:35.803Z</time>
      </trkpt>
      <trkpt lat="45.42655" lon="5.46006">
        <ele>559.81</ele>
        <time>2022-04-30T10:59:57.542Z</time>
      </trkpt>
      <trkpt lat="45.4265" lon="5.45974">
        <ele>561.68</ele>
        <time>2022-04-30T11:00:16.677Z</time>
      </trkpt>
      <trkpt lat="45.42647" lon="5.45941">
        <ele>561.12</ele>
        <time>2022-04-30T11:00:37.004Z</time>
      </trkpt>
      <trkpt lat="45.42645" lon="5.45909">
        <ele>560.24</ele>
        <time>2022-04-30T11:00:57.764Z</time>
      </trkpt>
      <trkpt lat="45.4264" lon="5.45877">
        <ele>559.91</ele>
        <time>2022-04-30T11:01:17.985Z</time>
      </trkpt>
      <trkpt lat="45.42636" lon="5.45846">
        <ele>559.54</ele>
        <time>2022-04-30T11:01:38.000Z</time>
      </trkpt>
      <trkpt lat="45.42631" lon="5.45814">
        <ele>558.99</ele>
        <time>2022-04-30T11:01:58.043Z</time>
      </trkpt>
      <trkpt lat="45.42626" lon="5.45783">
        <ele>559.1</ele>
        <time>2022-04-30T11:02:19.464Z</time>
      </trkpt>
      <trkpt lat="45.42623" lon="5.45751">
        <ele>559.5</ele>
        <time>2022-04-30T11:02:38.985Z</time>
      </trkpt>
      <trkpt lat="45.42622" lon="5.45718">
        <ele>559.83</ele>
        <time>2022-04-30T11:02:58.753Z</time>
      </trkpt>
      <trkpt lat="45.42621" lon="5.45686">
        <ele>559.34</ele>
        <time>2022-04-30T11:03:18.178Z</time>
      </trkpt>
      <trkpt lat="45.42602" lon="5.45667">
        <ele>556.67</ele>
        <time>2022-04-30T11:03:54.000Z</time>
      </trkpt>
      <trkpt lat="45.4258" lon="5.45668">
        <ele>557.46</ele>
        <time>2022-04-30T11:04:14.980Z</time>
      </trkpt>
      <trkpt lat="45.42557" lon="5.45667">
        <ele>556.97</ele>
        <time>2022-04-30T11:04:36.806Z</time>
      </trkpt>
      <trkpt lat="45.42534" lon="5.45669">
        <ele>555.37</ele>
        <time>2022-04-30T11:04:57.881Z</time>
      </trkpt>
      <trkpt lat="45.42511" lon="5.45672">
        <ele>555.27</ele>
        <time>2022-04-30T11:05:19.880Z</time>
      </trkpt>
      <trkpt lat="45.42488" lon="5.45672">
        <ele>553.06</ele>
        <time>2022-04-30T11:05:41.000Z</time>
      </trkpt>
      <trkpt lat="45.42475" lon="5.45645">
        <ele>550.42</ele>
        <time>2022-04-30T11:06:04.000Z</time>
      </trkpt>
      <trkpt lat="45.42463" lon="5.45617">
        <ele>548.15</ele>
        <time>2022-04-30T11:06:24.839Z</time>
      </trkpt>
      <trkpt lat="45.42449" lon="5.4559">
        <ele>550.34</ele>
        <time>2022-04-30T11:06:46.018Z</time>
      </trkpt>
      <trkpt lat="45.42436" lon="5.45563">
        <ele>549.94</ele>
        <time>2022-04-30T11:07:08.441Z</time>
      </trkpt>
      <trkpt lat="45.42423" lon="5.45537">
        <ele>549.3</ele>
        <time>2022-04-30T11:07:28.623Z</time>
      </trkpt>
      <trkpt lat="45.42409" lon="5.4551">
        <ele>547.99</ele>
        <time>2022-04-30T11:07:48.682Z</time>
      </trkpt>
      <trkpt lat="45.42395" lon="5.45483">
        <ele>546.52</ele>
        <time>2022-04-30T11:08:09.902Z</time>
      </trkpt>
      <trkpt lat="45.42384" lon="5.45453">
        <ele>548.06</ele>
        <time>2022-04-30T11:08:32.881Z</time>
      </trkpt>
      <trkpt lat="45.42373" lon="5.45425">
        <ele>546.59</ele>
        <time>2022-04-30T11:08:53.861Z</time>
      </trkpt>
      <trkpt lat="45.42361" lon="5.45396">
        <ele>545.05</ele>
        <time>2022-04-30T11:09:13.006Z</time>
      </trkpt>
      <trkpt lat="45.42344" lon="5.45373">
        <ele>548.32</ele>
        <time>2022-04-30T11:09:35.561Z</time>
      </trkpt>
      <trkpt lat="45.42326" lon="5.45353">
        <ele>541.57</ele>
        <time>2022-04-30T11:09:57.081Z</time>
      </trkpt>
      <trkpt lat="45.4231" lon="5.4533">
        <ele>539.61</ele>
        <time>2022-04-30T11:10:18.000Z</time>
      </trkpt>
      <trkpt lat="45.42291" lon="5.45312">
        <ele>539.24</ele>
        <time>2022-04-30T11:10:39.041Z</time>
      </trkpt>
      <trkpt lat="45.4227" lon="5.453">
        <ele>538.99</ele>
        <time>2022-04-30T11:10:59.685Z</time>
      </trkpt>
      <trkpt lat="45.42248" lon="5.45289">
        <ele>548.32</ele>
        <time>2022-04-30T11:11:19.427Z</time>
      </trkpt>
      <trkpt lat="45.42225" lon="5.45284">
        <ele>540.19</ele>
        <time>2022-04-30T11:11:40.000Z</time>
      </trkpt>
      <trkpt lat="45.42203" lon="5.45284">
        <ele>538.73</ele>
        <time>2022-04-30T11:11:59.966Z</time>
      </trkpt>
      <trkpt lat="45.42179" lon="5.45283">
        <ele>538.88</ele>
        <time>2022-04-30T11:12:20.965Z</time>
      </trkpt>
      <trkpt lat="45.42159" lon="5.45269">
        <ele>539.37</ele>
        <time>2022-04-30T11:12:44.846Z</time>
      </trkpt>
      <trkpt lat="45.42148" lon="5.45241">
        <ele>536.76</ele>
        <time>2022-04-30T11:13:10.582Z</time>
      </trkpt>
      <trkpt lat="45.42138" lon="5.45212">
        <ele>539.58</ele>
        <time>2022-04-30T11:13:33.022Z</time>
      </trkpt>
      <trkpt lat="45.4213" lon="5.45181">
        <ele>537.15</ele>
        <time>2022-04-30T11:13:54.041Z</time>
      </trkpt>
      <trkpt lat="45.42131" lon="5.45148">
        <ele>548.42</ele>
        <time>2022-04-30T11:14:17.019Z</time>
      </trkpt>
      <trkpt lat="45.42151" lon="5.45131">
        <ele>545.92</ele>
        <time>2022-04-30T11:14:37.500Z</time>
      </trkpt>
      <trkpt lat="45.42152" lon="5.45098">
        <ele>546.92</ele>
        <time>2022-04-30T11:15:00.823Z</time>
      </trkpt>
      <trkpt lat="45.42129" lon="5.45099">
        <ele>544.61</ele>
        <time>2022-04-30T11:26:45.977Z</time>
      </trkpt>
      <trkpt lat="45.42111" lon="5.45076">
        <ele>543.82</ele>
        <time>2022-04-30T11:27:07.803Z</time>
      </trkpt>
      <trkpt lat="45.42098" lon="5.4505">
        <ele>542.53</ele>
        <time>2022-04-30T11:27:28.000Z</time>
      </trkpt>
      <trkpt lat="45.42083" lon="5.45026">
        <ele>540.77</ele>
        <time>2022-04-30T11:27:51.878Z</time>
      </trkpt>
      <trkpt lat="45.42066" lon="5.45005">
        <ele>545.91</ele>
        <time>2022-04-30T11:28:13.819Z</time>
      </trkpt>
      <trkpt lat="45.42055" lon="5.44976">
        <ele>542.22</ele>
        <time>2022-04-30T11:28:35.663Z</time>
      </trkpt>
      <trkpt lat="45.4206" lon="5.44945">
        <ele>539.44</ele>
        <time>2022-04-30T11:28:58.978Z</time>
      </trkpt>
      <trkpt lat="45.42059" lon="5.44913">
        <ele>539.21</ele>
        <time>2022-04-30T11:29:22.363Z</time>
      </trkpt>
      <trkpt lat="45.42049" lon="5.44884">
        <ele>542.66</ele>
        <time>2022-04-30T11:29:46.000Z</time>
      </trkpt>
      <trkpt lat="45.42031" lon="5.44862">
        <ele>545.04</ele>
        <time>2022-04-30T11:30:06.706Z</time>
      </trkpt>
      <trkpt lat="45.42009" lon="5.44853">
        <ele>544.82</ele>
        <time>2022-04-30T11:30:29.444Z</time>
      </trkpt>
      <trkpt lat="45.41988" lon="5.44839">
        <ele>545.85</ele>
        <time>2022-04-30T11:30:51.664Z</time>
      </trkpt>
      <trkpt lat="45.41971" lon="5.44817">
        <ele>544.84</ele>
        <time>2022-04-30T11:31:14.000Z</time>
      </trkpt>
      <trkpt lat="45.41958" lon="5.4479">
        <ele>546.59</ele>
        <time>2022-04-30T11:31:35.480Z</time>
      </trkpt>
      <trkpt lat="45.41949" lon="5.44761">
        <ele>550.26</ele>
        <time>2022-04-30T11:31:56.000Z</time>
      </trkpt>
      <trkpt lat="45.41937" lon="5.44733">
        <ele>550.16</ele>
        <time>2022-04-30T11:32:18.661Z</time>
      </trkpt>
      <trkpt lat="45.41926" lon="5.44704">
        <ele>549.68</ele>
        <time>2022-04-30T11:32:40.679Z</time>
      </trkpt>
      <trkpt lat="45.41916" lon="5.44675">
        <ele>554.41</ele>
        <time>2022-04-30T11:33:38.579Z</time>
      </trkpt>
      <trkpt lat="45.41909" lon="5.44645">
        <ele>554.41</ele>
        <time>2022-04-30T11:34:02.000Z</time>
      </trkpt>
      <trkpt lat="45.41906" lon="5.44612">
        <ele>555.41</ele>
        <time>2022-04-30T11:34:22.885Z</time>
      </trkpt>
      <trkpt lat="45.41899" lon="5.44581">
        <ele>555.71</ele>
        <time>2022-04-30T11:34:44.423Z</time>
      </trkpt>
      <trkpt lat="45.41895" lon="5.44549">
        <ele>555.71</ele>
        <time>2022-04-30T11:35:07.000Z</time>
      </trkpt>
      <trkpt lat="45.41888" lon="5.44517">
        <ele>560.81</ele>
        <time>2022-04-30T11:35:27.664Z</time>
      </trkpt>
      <trkpt lat="45.41879" lon="5.44487">
        <ele>561.11</ele>
        <time>2022-04-30T11:35:52.477Z</time>
      </trkpt>
      <trkpt lat="45.41873" lon="5.44456">
        <ele>561.11</ele>
        <time>2022-04-30T11:36:13.000Z</time>
      </trkpt>
      <trkpt lat="45.4188" lon="5.44425">
        <ele>561.51</ele>
        <time>2022-04-30T11:36:40.000Z</time>
      </trkpt>
      <trkpt lat="45.41872" lon="5.44394">
        <ele>564.6</ele>
        <time>2022-04-30T11:37:07.064Z</time>
      </trkpt>
      <trkpt lat="45.41859" lon="5.44367">
        <ele>565.2</ele>
        <time>2022-04-30T11:37:32.397Z</time>
      </trkpt>
      <trkpt lat="45.41844" lon="5.44342">
        <ele>566.11</ele>
        <time>2022-04-30T11:37:58.623Z</time>
      </trkpt>
      <trkpt lat="45.4183" lon="5.44317">
        <ele>569.25</ele>
        <time>2022-04-30T11:38:26.061Z</time>
      </trkpt>
      <trkpt lat="45.41817" lon="5.44288">
        <ele>573.46</ele>
        <time>2022-04-30T11:38:54.000Z</time>
      </trkpt>
      <trkpt lat="45.41803" lon="5.44263">
        <ele>575.66</ele>
        <time>2022-04-30T11:39:18.004Z</time>
      </trkpt>
      <trkpt lat="45.41788" lon="5.4424">
        <ele>388.5</ele>
        <time>2022-04-30T11:39:45.566Z</time>
      </trkpt>
      <trkpt lat="45.41773" lon="5.44215">
        <ele>580.3</ele>
        <time>2022-04-30T11:40:12.945Z</time>
      </trkpt>
      <trkpt lat="45.41757" lon="5.4419">
        <ele>212.5</ele>
        <time>2022-04-30T11:40:50.037Z</time>
      </trkpt>
      <trkpt lat="45.41744" lon="5.44162">
        <ele>212.5</ele>
        <time>2022-04-30T11:41:19.837Z</time>
      </trkpt>
      <trkpt lat="45.4173" lon="5.44136">
        <ele>593.27</ele>
        <time>2022-04-30T11:41:44.000Z</time>
      </trkpt>
      <trkpt lat="45.41714" lon="5.44114">
        <ele>572.82</ele>
        <time>2022-04-30T11:42:12.463Z</time>
      </trkpt>
      <trkpt lat="45.41703" lon="5.44086">
        <ele>602.06</ele>
        <time>2022-04-30T11:42:38.661Z</time>
      </trkpt>
      <trkpt lat="45.41688" lon="5.44061">
        <ele>599.96</ele>
        <time>2022-04-30T11:43:33.000Z</time>
      </trkpt>
      <trkpt lat="45.41671" lon="5.44039">
        <ele>609.6</ele>
        <time>2022-04-30T11:45:03.000Z</time>
      </trkpt>
      <trkpt lat="45.41655" lon="5.44016">
        <ele>627.49</ele>
        <time>2022-04-30T11:45:28.461Z</time>
      </trkpt>
      <trkpt lat="45.41634" lon="5.44002">
        <ele>625.91</ele>
        <time>2022-04-30T11:46:01.797Z</time>
      </trkpt>
      <trkpt lat="45.41618" lon="5.43979">
        <ele>611.9</ele>
        <time>2022-04-30T11:47:24.000Z</time>
      </trkpt>
      <trkpt lat="45.41599" lon="5.43962">
        <ele>615.88</ele>
        <time>2022-04-30T11:47:54.000Z</time>
      </trkpt>
      <trkpt lat="45.41589" lon="5.43934">
        <ele>631.44</ele>
        <time>2022-04-30T11:48:56.000Z</time>
      </trkpt>
      <trkpt lat="45.41573" lon="5.43909">
        <ele>644.32</ele>
        <time>2022-04-30T11:49:23.857Z</time>
      </trkpt>
      <trkpt lat="45.41567" lon="5.43878">
        <ele>638.18</ele>
        <time>2022-04-30T11:50:41.001Z</time>
      </trkpt>
      <trkpt lat="45.41562" lon="5.43846">
        <ele>637.75</ele>
        <time>2022-04-30T11:51:25.000Z</time>
      </trkpt>
      <trkpt lat="45.41557" lon="5.43815">
        <ele>632.92</ele>
        <time>2022-04-30T11:51:57.905Z</time>
      </trkpt>
      <trkpt lat="45.41553" lon="5.43782">
        <ele>630.57</ele>
        <time>2022-04-30T11:52:32.020Z</time>
      </trkpt>
      <trkpt lat="45.41553" lon="5.4375">
        <ele>633.28</ele>
        <time>2022-04-30T11:53:00.043Z</time>
      </trkpt>
      <trkpt lat="45.41553" lon="5.43717">
        <ele>633.33</ele>
        <time>2022-04-30T11:53:27.922Z</time>
      </trkpt>
      <trkpt lat="45.41554" lon="5.43685">
        <ele>633.25</ele>
        <time>2022-04-30T11:54:01.826Z</time>
      </trkpt>
      <trkpt lat="45.41561" lon="5.43654">
        <ele>639.87</ele>
        <time>2022-04-30T11:54:28.000Z</time>
      </trkpt>
      <trkpt lat="45.41567" lon="5.43623">
        <ele>644.32</ele>
        <time>2022-04-30T11:54:50.000Z</time>
      </trkpt>
      <trkpt lat="45.41573" lon="5.43592">
        <ele>647.34</ele>
        <time>2022-04-30T11:55:18.624Z</time>
      </trkpt>
      <trkpt lat="45.41581" lon="5.43562">
        <ele>648.69</ele>
        <time>2022-04-30T11:55:46.965Z</time>
      </trkpt>
      <trkpt lat="45.41589" lon="5.43532">
        <ele>652.12</ele>
        <time>2022-04-30T11:56:57.000Z</time>
      </trkpt>
      <trkpt lat="45.41594" lon="5.435">
        <ele>654.82</ele>
        <time>2022-04-30T11:57:27.000Z</time>
      </trkpt>
      <trkpt lat="45.41579" lon="5.43476">
        <ele>652.45</ele>
        <time>2022-04-30T11:57:59.043Z</time>
      </trkpt>
      <trkpt lat="45.41556" lon="5.43475">
        <ele>648.45</ele>
        <time>2022-04-30T11:58:28.881Z</time>
      </trkpt>
      <trkpt lat="45.41533" lon="5.43474">
        <ele>647.24</ele>
        <time>2022-04-30T11:58:59.019Z</time>
      </trkpt>
      <trkpt lat="45.4151" lon="5.43479">
        <ele>654.38</ele>
        <time>2022-04-30T11:59:21.701Z</time>
      </trkpt>
      <trkpt lat="45.41487" lon="5.43482">
        <ele>667.11</ele>
        <time>2022-04-30T11:59:43.000Z</time>
      </trkpt>
      <trkpt lat="45.41464" lon="5.4348">
        <ele>676.43</ele>
        <time>2022-04-30T12:00:11.000Z</time>
      </trkpt>
      <trkpt lat="45.41441" lon="5.43479">
        <ele>666.09</ele>
        <time>2022-04-30T12:01:31.000Z</time>
      </trkpt>
      <trkpt lat="45.4142" lon="5.43491">
        <ele>675.41</ele>
        <time>2022-04-30T12:02:55.565Z</time>
      </trkpt>
      <trkpt lat="45.41398" lon="5.43497">
        <ele>677.3</ele>
        <time>2022-04-30T12:03:32.000Z</time>
      </trkpt>
      <trkpt lat="45.41376" lon="5.43502">
        <ele>684.21</ele>
        <time>2022-04-30T12:04:02.201Z</time>
      </trkpt>
      <trkpt lat="45.41354" lon="5.43508">
        <ele>689.4</ele>
        <time>2022-04-30T12:04:30.000Z</time>
      </trkpt>
      <trkpt lat="45.41343" lon="5.43537">
        <ele>686.84</ele>
        <time>2022-04-30T12:05:07.905Z</time>
      </trkpt>
      <trkpt lat="45.41329" lon="5.43563">
        <ele>680.72</ele>
        <time>2022-04-30T12:05:40.885Z</time>
      </trkpt>
      <trkpt lat="45.41318" lon="5.43591">
        <ele>683.62</ele>
        <time>2022-04-30T12:06:12.000Z</time>
      </trkpt>
      <trkpt lat="45.41306" lon="5.43619">
        <ele>687.04</ele>
        <time>2022-04-30T12:06:41.000Z</time>
      </trkpt>
      <trkpt lat="45.41288" lon="5.43639">
        <ele>690.3</ele>
        <time>2022-04-30T12:07:07.725Z</time>
      </trkpt>
      <trkpt lat="45.41269" lon="5.43659">
        <ele>694.63</ele>
        <time>2022-04-30T12:07:56.865Z</time>
      </trkpt>
      <trkpt lat="45.41248" lon="5.43669">
        <ele>704.42</ele>
        <time>2022-04-30T12:08:28.781Z</time>
      </trkpt>
      <trkpt lat="45.41228" lon="5.43684">
        <ele>706.72</ele>
        <time>2022-04-30T12:09:26.000Z</time>
      </trkpt>
      <trkpt lat="45.41206" lon="5.43694">
        <ele>706.22</ele>
        <time>2022-04-30T12:10:01.559Z</time>
      </trkpt>
      <trkpt lat="45.41183" lon="5.43692">
        <ele>703.95</ele>
        <time>2022-04-30T12:11:43.405Z</time>
      </trkpt>
      <trkpt lat="45.41161" lon="5.4369">
        <ele>696.58</ele>
        <time>2022-04-30T12:14:05.000Z</time>
      </trkpt>
      <trkpt lat="45.41139" lon="5.43702">
        <ele>694.76</ele>
        <time>2022-04-30T12:14:38.884Z</time>
      </trkpt>
      <trkpt lat="45.41116" lon="5.43708">
        <ele>696.7</ele>
        <time>2022-04-30T12:15:10.705Z</time>
      </trkpt>
      <trkpt lat="45.41094" lon="5.43704">
        <ele>697.74</ele>
        <time>2022-04-30T12:15:40.806Z</time>
      </trkpt>
      <trkpt lat="45.41071" lon="5.43704">
        <ele>671.29</ele>
        <time>2022-04-30T12:17:21.000Z</time>
      </trkpt>
      <trkpt lat="45.41049" lon="5.43713">
        <ele>663.94</ele>
        <time>2022-04-30T12:18:10.018Z</time>
      </trkpt>
      <trkpt lat="45.41028" lon="5.43725">
        <ele>667.78</ele>
        <time>2022-04-30T12:18:33.000Z</time>
      </trkpt>
      <trkpt lat="45.41005" lon="5.43731">
        <ele>667.59</ele>
        <time>2022-04-30T12:19:26.205Z</time>
      </trkpt>
      <trkpt lat="45.40982" lon="5.43733">
        <ele>666.42</ele>
        <time>2022-04-30T12:19:54.000Z</time>
      </trkpt>
      <trkpt lat="45.4096" lon="5.43736">
        <ele>662.87</ele>
        <time>2022-04-30T12:20:21.822Z</time>
      </trkpt>
      <trkpt lat="45.40937" lon="5.43741">
        <ele>660.74</ele>
        <time>2022-04-30T12:20:53.000Z</time>
      </trkpt>
      <trkpt lat="45.40915" lon="5.43745">
        <ele>657.82</ele>
        <time>2022-04-30T12:21:20.000Z</time>
      </trkpt>
      <trkpt lat="45.40892" lon="5.43751">
        <ele>656.74</ele>
        <time>2022-04-30T12:21:47.000Z</time>
      </trkpt>
      <trkpt lat="45.40871" lon="5.43765">
        <ele>652.96</ele>
        <time>2022-04-30T12:22:13.882Z</time>
      </trkpt>
      <trkpt lat="45.40851" lon="5.4378">
        <ele>650.13</ele>
        <time>2022-04-30T12:22:47.384Z</time>
      </trkpt>
      <trkpt lat="45.4083" lon="5.43793">
        <ele>645.15</ele>
        <time>2022-04-30T12:23:15.322Z</time>
      </trkpt>
      <trkpt lat="45.40808" lon="5.43801">
        <ele>644.67</ele>
        <time>2022-04-30T12:23:41.704Z</time>
      </trkpt>
      <trkpt lat="45.40793" lon="5.43824">
        <ele>641.52</ele>
        <time>2022-04-30T12:24:06.000Z</time>
      </trkpt>
      <trkpt lat="45.40776" lon="5.43846">
        <ele>641.16</ele>
        <time>2022-04-30T12:24:30.462Z</time>
      </trkpt>
      <trkpt lat="45.40754" lon="5.43837">
        <ele>593.37</ele>
        <time>2022-04-30T12:26:18.000Z</time>
      </trkpt>
      <trkpt lat="45.40736" lon="5.43816">
        <ele>633.16</ele>
        <time>2022-04-30T12:26:43.122Z</time>
      </trkpt>
      <trkpt lat="45.40717" lon="5.43797">
        <ele>647.16</ele>
        <time>2022-04-30T12:27:09.000Z</time>
      </trkpt>
      <trkpt lat="45.40696" lon="5.43786">
        <ele>629.69</ele>
        <time>2022-04-30T12:27:37.000Z</time>
      </trkpt>
      <trkpt lat="45.40675" lon="5.43775">
        <ele>631.44</ele>
        <time>2022-04-30T12:28:12.000Z</time>
      </trkpt>
      <trkpt lat="45.40697" lon="5.43784">
        <ele>615.98</ele>
        <time>2022-04-30T12:29:01.000Z</time>
      </trkpt>
      <trkpt lat="45.40712" lon="5.4376">
        <ele>603.67</ele>
        <time>2022-04-30T12:29:45.620Z</time>
      </trkpt>
      <trkpt lat="45.40715" lon="5.43728">
        <ele>609.95</ele>
        <time>2022-04-30T12:30:06.000Z</time>
      </trkpt>
      <trkpt lat="45.40718" lon="5.43696">
        <ele>620.99</ele>
        <time>2022-04-30T12:30:23.445Z</time>
      </trkpt>
      <trkpt lat="45.40724" lon="5.43665">
        <ele>623.83</ele>
        <time>2022-04-30T12:30:45.562Z</time>
      </trkpt>
      <trkpt lat="45.40731" lon="5.43633">
        <ele>626.21</ele>
        <time>2022-04-30T12:31:09.000Z</time>
      </trkpt>
      <trkpt lat="45.40736" lon="5.43601">
        <ele>628.3</ele>
        <time>2022-04-30T12:31:30.782Z</time>
      </trkpt>
      <trkpt lat="45.40741" lon="5.4357">
        <ele>627.18</ele>
        <time>2022-04-30T12:31:54.000Z</time>
      </trkpt>
      <trkpt lat="45.40737" lon="5.43538">
        <ele>626.98</ele>
        <time>2022-04-30T12:32:17.944Z</time>
      </trkpt>
      <trkpt lat="45.40728" lon="5.43508">
        <ele>626.06</ele>
        <time>2022-04-30T12:32:42.000Z</time>
      </trkpt>
      <trkpt lat="45.4072" lon="5.43477">
        <ele>624.69</ele>
        <time>2022-04-30T12:33:04.357Z</time>
      </trkpt>
      <trkpt lat="45.40713" lon="5.43446">
        <ele>625.3</ele>
        <time>2022-04-30T12:33:26.799Z</time>
      </trkpt>
      <trkpt lat="45.40702" lon="5.43418">
        <ele>624.67</ele>
        <time>2022-04-30T12:33:50.000Z</time>
      </trkpt>
      <trkpt lat="45.40692" lon="5.43389">
        <ele>624.05</ele>
        <time>2022-04-30T12:35:36.288Z</time>
      </trkpt>
      <trkpt lat="45.40684" lon="5.43358">
        <ele>622.63</ele>
        <time>2022-04-30T12:35:58.885Z</time>
      </trkpt>
      <trkpt lat="45.40677" lon="5.43327">
        <ele>623.28</ele>
        <time>2022-04-30T12:36:21.606Z</time>
      </trkpt>
      <trkpt lat="45.40669" lon="5.43297">
        <ele>626.58</ele>
        <time>2022-04-30T12:36:46.000Z</time>
      </trkpt>
      <trkpt lat="45.40663" lon="5.43266">
        <ele>625.46</ele>
        <time>2022-04-30T12:37:18.000Z</time>
      </trkpt>
      <trkpt lat="45.40665" lon="5.43234">
        <ele>628.87</ele>
        <time>2022-04-30T12:37:49.006Z</time>
      </trkpt>
      <trkpt lat="45.40669" lon="5.43201">
        <ele>625.8</ele>
        <time>2022-04-30T12:38:20.644Z</time>
      </trkpt>
      <trkpt lat="45.4068" lon="5.43173">
        <ele>626.3</ele>
        <time>2022-04-30T12:38:47.069Z</time>
      </trkpt>
      <trkpt lat="45.40693" lon="5.43146">
        <ele>625.24</ele>
        <time>2022-04-30T12:39:12.948Z</time>
      </trkpt>
      <trkpt lat="45.407" lon="5.43115">
        <ele>625.63</ele>
        <time>2022-04-30T12:39:39.464Z</time>
      </trkpt>
      <trkpt lat="45.40708" lon="5.43084">
        <ele>626.95</ele>
        <time>2022-04-30T12:40:03.771Z</time>
      </trkpt>
      <trkpt lat="45.4071" lon="5.43052">
        <ele>621</ele>
        <time>2022-04-30T12:40:36.000Z</time>
      </trkpt>
      <trkpt lat="45.40713" lon="5.43021">
        <ele>627.93</ele>
        <time>2022-04-30T12:41:03.000Z</time>
      </trkpt>
      <trkpt lat="45.40725" lon="5.42993">
        <ele>620.21</ele>
        <time>2022-04-30T12:41:41.949Z</time>
      </trkpt>
      <trkpt lat="45.40733" lon="5.42962">
        <ele>606.49</ele>
        <time>2022-04-30T12:42:33.465Z</time>
      </trkpt>
      <trkpt lat="45.4074" lon="5.42931">
        <ele>585.41</ele>
        <time>2022-04-30T12:44:13.000Z</time>
      </trkpt>
      <trkpt lat="45.40732" lon="5.42901">
        <ele>558.45</ele>
        <time>2022-04-30T12:47:10.000Z</time>
      </trkpt>
      <trkpt lat="45.40726" lon="5.42869">
        <ele>539.18</ele>
        <time>2022-04-30T12:50:50.000Z</time>
      </trkpt>
      <trkpt lat="45.40728" lon="5.42836">
        <ele>524.05</ele>
        <time>2022-04-30T12:52:16.000Z</time>
      </trkpt>
      <trkpt lat="45.40739" lon="5.42808">
        <ele>535.96</ele>
        <time>2022-04-30T12:52:37.000Z</time>
      </trkpt>
      <trkpt lat="45.4073" lon="5.42779">
        <ele>529.63</ele>
        <time>2022-04-30T12:53:57.000Z</time>
      </trkpt>
      <trkpt lat="45.40724" lon="5.42747">
        <ele>533.27</ele>
        <time>2022-04-30T12:54:52.747Z</time>
      </trkpt>
      <trkpt lat="45.40728" lon="5.42716">
        <ele>512.48</ele>
        <time>2022-04-30T12:56:17.840Z</time>
      </trkpt>
      <trkpt lat="45.40723" lon="5.42684">
        <ele>510.06</ele>
        <time>2022-04-30T12:57:58.545Z</time>
      </trkpt>
      <trkpt lat="45.40705" lon="5.42665">
        <ele>515.77</ele>
        <time>2022-04-30T12:58:46.392Z</time>
      </trkpt>
      <trkpt lat="45.40707" lon="5.42632">
        <ele>510.85</ele>
        <time>2022-04-30T12:59:17.825Z</time>
      </trkpt>
      <trkpt lat="45.40697" lon="5.42602">
        <ele>510.74</ele>
        <time>2022-04-30T12:59:33.446Z</time>
      </trkpt>
      <trkpt lat="45.40685" lon="5.42575">
        <ele>515.82</ele>
        <time>2022-04-30T12:59:41.939Z</time>
      </trkpt>
      <trkpt lat="45.40674" lon="5.42547">
        <ele>523.79</ele>
        <time>2022-04-30T12:59:55.583Z</time>
      </trkpt>
      <trkpt lat="45.40662" lon="5.42519">
        <ele>527.86</ele>
        <time>2022-04-30T13:00:16.864Z</time>
      </trkpt>
      <trkpt lat="45.40655" lon="5.42488">
        <ele>527.82</ele>
        <time>2022-04-30T13:00:42.966Z</time>
      </trkpt>
      <trkpt lat="45.40646" lon="5.42459">
        <ele>503.46</ele>
        <time>2022-04-30T13:01:15.000Z</time>
      </trkpt>
      <trkpt lat="45.40638" lon="5.42428">
        <ele>503.46</ele>
        <time>2022-04-30T13:01:47.000Z</time>
      </trkpt>
      <trkpt lat="45.40642" lon="5.42396">
        <ele>496.46</ele>
        <time>2022-04-30T13:02:26.947Z</time>
      </trkpt>
      <trkpt lat="45.40631" lon="5.42368">
        <ele>499.74</ele>
        <time>2022-04-30T13:02:57.584Z</time>
      </trkpt>
      <trkpt lat="45.40611" lon="5.42353">
        <ele>499.37</ele>
        <time>2022-04-30T13:03:24.063Z</time>
      </trkpt>
      <trkpt lat="45.40594" lon="5.42331">
        <ele>490.65</ele>
        <time>2022-04-30T13:03:56.805Z</time>
      </trkpt>
      <trkpt lat="45.40572" lon="5.42323">
        <ele>492.43</ele>
        <time>2022-04-30T13:04:17.029Z</time>
      </trkpt>
      <trkpt lat="45.40551" lon="5.42309">
        <ele>488.95</ele>
        <time>2022-04-30T13:04:38.000Z</time>
      </trkpt>
      <trkpt lat="45.40531" lon="5.42295">
        <ele>488.33</ele>
        <time>2022-04-30T13:04:59.502Z</time>
      </trkpt>
      <trkpt lat="45.40511" lon="5.42278">
        <ele>487.95</ele>
        <time>2022-04-30T13:05:19.429Z</time>
      </trkpt>
      <trkpt lat="45.40494" lon="5.42257">
        <ele>462.06</ele>
        <time>2022-04-30T13:05:41.000Z</time>
      </trkpt>
      <trkpt lat="45.40478" lon="5.42234">
        <ele>488.65</ele>
        <time>2022-04-30T13:06:13.510Z</time>
      </trkpt>
      <trkpt lat="45.40464" lon="5.42207">
        <ele>486.81</ele>
        <time>2022-04-30T13:06:33.627Z</time>
      </trkpt>
      <trkpt lat="45.4045" lon="5.4218">
        <ele>490.56</ele>
        <time>2022-04-30T13:06:55.964Z</time>
      </trkpt>
      <trkpt lat="45.40437" lon="5.42153">
        <ele>481.21</ele>
        <time>2022-04-30T13:07:16.726Z</time>
      </trkpt>
      <trkpt lat="45.40424" lon="5.42126">
        <ele>478.79</ele>
        <time>2022-04-30T13:07:37.000Z</time>
      </trkpt>
      <trkpt lat="45.4041" lon="5.42101">
        <ele>478.26</ele>
        <time>2022-04-30T13:07:59.000Z</time>
      </trkpt>
      <trkpt lat="45.40396" lon="5.42076">
        <ele>477.97</ele>
        <time>2022-04-30T13:08:22.000Z</time>
      </trkpt>
      <trkpt lat="45.40376" lon="5.42059">
        <ele>480.71</ele>
        <time>2022-04-30T13:08:43.028Z</time>
      </trkpt>
      <trkpt lat="45.40353" lon="5.42054">
        <ele>483.14</ele>
        <time>2022-04-30T13:10:50.949Z</time>
      </trkpt>
      <trkpt lat="45.4033" lon="5.4206">
        <ele>485.65</ele>
        <time>2022-04-30T13:11:09.400Z</time>
      </trkpt>
      <trkpt lat="45.4031" lon="5.42077">
        <ele>485.65</ele>
        <time>2022-04-30T13:11:29.950Z</time>
      </trkpt>
      <trkpt lat="45.4029" lon="5.42095">
        <ele>486.65</ele>
        <time>2022-04-30T13:11:49.905Z</time>
      </trkpt>
      <trkpt lat="45.40267" lon="5.42104">
        <ele>486.65</ele>
        <time>2022-04-30T13:12:10.000Z</time>
      </trkpt>
      <trkpt lat="45.40245" lon="5.42102">
        <ele>485.61</ele>
        <time>2022-04-30T13:12:30.749Z</time>
      </trkpt>
      <trkpt lat="45.40222" lon="5.42104">
        <ele>488.93</ele>
        <time>2022-04-30T13:12:53.989Z</time>
      </trkpt>
      <trkpt lat="45.40199" lon="5.42103">
        <ele>482.76</ele>
        <time>2022-04-30T13:13:12.590Z</time>
      </trkpt>
      <trkpt lat="45.40176" lon="5.42098">
        <ele>485.95</ele>
        <time>2022-04-30T13:13:34.000Z</time>
      </trkpt>
      <trkpt lat="45.40153" lon="5.42096">
        <ele>482.75</ele>
        <time>2022-04-30T13:13:54.651Z</time>
      </trkpt>
      <trkpt lat="45.40131" lon="5.4209">
        <ele>483.45</ele>
        <time>2022-04-30T13:14:12.706Z</time>
      </trkpt>
      <trkpt lat="45.40108" lon="5.42085">
        <ele>483.05</ele>
        <time>2022-04-30T13:14:32.786Z</time>
      </trkpt>
      <trkpt lat="45.40086" lon="5.42082">
        <ele>482.75</ele>
        <time>2022-04-30T13:14:51.809Z</time>
      </trkpt>
      <trkpt lat="45.40064" lon="5.42072">
        <ele>482.84</ele>
        <time>2022-04-30T13:15:16.990Z</time>
      </trkpt>
      <trkpt lat="45.40041" lon="5.42067">
        <ele>482.84</ele>
        <time>2022-04-30T13:15:39.398Z</time>
      </trkpt>
      <trkpt lat="45.40019" lon="5.42063">
        <ele>480.63</ele>
        <time>2022-04-30T13:16:02.000Z</time>
      </trkpt>
      <trkpt lat="45.39996" lon="5.42061">
        <ele>480.6</ele>
        <time>2022-04-30T13:16:22.988Z</time>
      </trkpt>
      <trkpt lat="45.39973" lon="5.4206">
        <ele>481.64</ele>
        <time>2022-04-30T13:16:41.944Z</time>
      </trkpt>
      <trkpt lat="45.39952" lon="5.42047">
        <ele>479.94</ele>
        <time>2022-04-30T13:17:03.000Z</time>
      </trkpt>
      <trkpt lat="45.39931" lon="5.42033">
        <ele>480.64</ele>
        <time>2022-04-30T13:17:25.000Z</time>
      </trkpt>
      <trkpt lat="45.39915" lon="5.42055">
        <ele>481.74</ele>
        <time>2022-04-30T13:18:51.570Z</time>
      </trkpt>
      <trkpt lat="45.39892" lon="5.42051">
        <ele>480.45</ele>
        <time>2022-04-30T13:19:12.928Z</time>
      </trkpt>
      <trkpt lat="45.3987" lon="5.42048">
        <ele>480.44</ele>
        <time>2022-04-30T13:19:32.000Z</time>
      </trkpt>
      <trkpt lat="45.39846" lon="5.4205">
        <ele>480.64</ele>
        <time>2022-04-30T13:19:52.464Z</time>
      </trkpt>
      <trkpt lat="45.39823" lon="5.42048">
        <ele>480.24</ele>
        <time>2022-04-30T13:20:16.944Z</time>
      </trkpt>
      <trkpt lat="45.39815" lon="5.42018">
        <ele>480.14</ele>
        <time>2022-04-30T13:20:41.022Z</time>
      </trkpt>
      <trkpt lat="45.39814" lon="5.41986">
        <ele>480.14</ele>
        <time>2022-04-30T13:21:06.501Z</time>
      </trkpt>
      <trkpt lat="45.39814" lon="5.41953">
        <ele>479.34</ele>
        <time>2022-04-30T13:36:19.000Z</time>
      </trkpt>
      <trkpt lat="45.39805" lon="5.41923">
        <ele>479.34</ele>
        <time>2022-04-30T13:38:43.000Z</time>
      </trkpt>
      <trkpt lat="45.39802" lon="5.41892">
        <ele>478.64</ele>
        <time>2022-04-30T13:39:07.808Z</time>
      </trkpt>
      <trkpt lat="45.3981" lon="5.41861">
        <ele>478.54</ele>
        <time>2022-04-30T13:39:30.543Z</time>
      </trkpt>
      <trkpt lat="45.39809" lon="5.41828">
        <ele>478.11</ele>
        <time>2022-04-30T13:39:56.764Z</time>
      </trkpt>
      <trkpt lat="45.39796" lon="5.418">
        <ele>477.94</ele>
        <time>2022-04-30T13:40:16.463Z</time>
      </trkpt>
      <trkpt lat="45.39774" lon="5.41794">
        <ele>477.93</ele>
        <time>2022-04-30T13:40:38.882Z</time>
      </trkpt>
      <trkpt lat="45.39752" lon="5.41806">
        <ele>477.46</ele>
        <time>2022-04-30T13:41:02.000Z</time>
      </trkpt>
      <trkpt lat="45.39728" lon="5.41812">
        <ele>477.38</ele>
        <time>2022-04-30T13:41:21.987Z</time>
      </trkpt>
      <trkpt lat="45.39705" lon="5.41807">
        <ele>477.93</ele>
        <time>2022-04-30T13:41:46.528Z</time>
      </trkpt>
      <trkpt lat="45.39682" lon="5.41815">
        <ele>480.46</ele>
        <time>2022-04-30T13:42:02.000Z</time>
      </trkpt>
      <trkpt lat="45.39658" lon="5.41816">
        <ele>481.03</ele>
        <time>2022-04-30T13:42:22.801Z</time>
      </trkpt>
      <trkpt lat="45.39636" lon="5.41824">
        <ele>479.61</ele>
        <time>2022-04-30T13:42:42.000Z</time>
      </trkpt>
      <trkpt lat="45.39612" lon="5.41829">
        <ele>476.23</ele>
        <time>2022-04-30T13:43:02.303Z</time>
      </trkpt>
      <trkpt lat="45.3959" lon="5.41834">
        <ele>478.34</ele>
        <time>2022-04-30T13:43:23.942Z</time>
      </trkpt>
      <trkpt lat="45.39568" lon="5.4184">
        <ele>477.43</ele>
        <time>2022-04-30T13:43:44.000Z</time>
      </trkpt>
      <trkpt lat="45.39568" lon="5.41808">
        <ele>478.84</ele>
        <time>2022-04-30T13:44:02.800Z</time>
      </trkpt>
      <trkpt lat="45.3957" lon="5.41775">
        <ele>474.63</ele>
        <time>2022-04-30T13:44:24.000Z</time>
      </trkpt>
      <trkpt lat="45.39567" lon="5.41742">
        <ele>476.23</ele>
        <time>2022-04-30T13:45:03.807Z</time>
      </trkpt>
      <trkpt lat="45.39563" lon="5.4171">
        <ele>476.23</ele>
        <time>2022-04-30T13:45:24.562Z</time>
      </trkpt>
      <trkpt lat="45.3956" lon="5.41679">
        <ele>474.53</ele>
        <time>2022-04-30T13:45:44.887Z</time>
      </trkpt>
      <trkpt lat="45.39556" lon="5.41647">
        <ele>473.91</ele>
        <time>2022-04-30T13:46:05.844Z</time>
      </trkpt>
      <trkpt lat="45.39554" lon="5.41615">
        <ele>473.91</ele>
        <time>2022-04-30T13:46:27.000Z</time>
      </trkpt>
      <trkpt lat="45.3955" lon="5.41583">
        <ele>473.93</ele>
        <time>2022-04-30T13:46:45.740Z</time>
      </trkpt>
      <trkpt lat="45.39541" lon="5.41553">
        <ele>473.53</ele>
        <time>2022-04-30T13:47:06.427Z</time>
      </trkpt>
      <trkpt lat="45.39533" lon="5.41522">
        <ele>474.83</ele>
        <time>2022-04-30T13:47:25.540Z</time>
      </trkpt>
      <trkpt lat="45.39523" lon="5.41493">
        <ele>470.83</ele>
        <time>2022-04-30T13:47:44.806Z</time>
      </trkpt>
      <trkpt lat="45.39517" lon="5.41462">
        <ele>470.83</ele>
        <time>2022-04-30T13:48:06.395Z</time>
      </trkpt>
      <trkpt lat="45.39506" lon="5.41434">
        <ele>474.63</ele>
        <time>2022-04-30T13:48:27.747Z</time>
      </trkpt>
      <trkpt lat="45.39493" lon="5.4143">
        <ele>474.63</ele>
        <time>2022-04-30T13:49:30.000Z</time>
      </trkpt>
    </trkseg>
  </trk>
</gpx>